Time,TemperatureF,DewpointF,PressureIn,WindDirection,WindDirectionDegrees,WindSpeedMPH,WindSpeedGustMPH,Humidity,HourlyPrecipIn,Conditions,Clouds,dailyrainin,SolarRadiationWatts/m^2,SoftwareType,DateUTC
2013-08-20 00:00:00,65.1,62.4,30.06,WNW,293,0.0,0.0,91,0.00,,,0.00,0.00,VWS V14.01,2013-08-20 04:00:00,
2013-08-20 00:01:00,65.1,62.7,30.06,WNW,293,0.0,0.0,92,0.00,,,0.00,0.00,VWS V14.01,2013-08-20 04:01:00,
2013-08-20 00:06:00,64.9,62.5,30.06,WNW,293,0.0,0.0,92,0.00,,,0.00,0.00,VWS V14.01,2013-08-20 04:06:00,
2013-08-20 00:11:00,64.8,62.4,30.06,WNW,293,0.0,0.0,92,0.00,,,0.00,0.00,VWS V14.01,2013-08-20 04:11:00,
2013-08-20 00:16:00,64.6,62.2,30.06,WNW,293,0.0,0.0,92,0.00,,,0.00,0.00,VWS V14.01,2013-08-20 04:16:00,
2013-08-20 00:21:00,64.6,62.5,30.06,WNW,293,0.0,0.0,93,0.00,,,0.00,0.00,VWS V14.01,2013-08-20 04:21:00,
2013-08-20 00:26:00,64.5,62.4,30.06,WNW,293,0.0,0.0,93,0.00,,,0.00,0.00,VWS V14.01,2013-08-20 04:26:00,
2013-08-20 00:31:00,64.4,62.3,30.06,WNW,293,0.0,0.0,93,0.00,,,0.00,0.00,VWS V14.01,2013-08-20 04:31:00,
2013-08-20 00:36:00,64.3,62.2,30.06,WNW,293,0.0,0.0,93,0.00,,,0.00,0.00,VWS V14.01,2013-08-20 04:36:00,
2013-08-20 00:41:00,64.2,62.1,30.06,WNW,293,0.0,0.0,93,0.00,,,0.00,0.00,VWS V14.01,2013-08-20 04:41:00,
2013-08-20 00:46:00,64.1,62.0,30.06,WNW,293,0.0,0.0,93,0.00,,,0.00,0.00,VWS V14.01,2013-08-20 04:46:00,
2013-08-20 00:47:00,64.1,62.0,30.06,WNW,293,0.0,0.0,93,0.00,,,0.00,0.00,VWS V14.01,2013-08-20 04:47:00,
2013-08-20 00:51:00,64.1,62.0,30.06,WNW,293,0.0,0.0,93,0.00,,,0.00,0.00,VWS V14.01,2013-08-20 04:51:00,
2013-08-20 00:52:00,64.0,61.9,30.06,WNW,293,0.0,0.0,93,0.00,,,0.00,0.00,VWS V14.01,2013-08-20 04:52:00,
2013-08-20 00:56:00,64.0,62.2,30.06,WNW,293,0.0,0.0,94,0.00,,,0.00,0.00,VWS V14.01,2013-08-20 04:56:00,
2013-08-20 00:57:00,64.0,62.2,30.06,WNW,293,0.0,0.0,94,0.00,,,0.00,0.00,VWS V14.01,2013-08-20 04:57:00,
2013-08-20 01:01:00,64.0,62.2,30.06,WNW,293,0.0,0.0,94,0.00,,,0.00,0.00,VWS V14.01,2013-08-20 05:01:00,
2013-08-20 01:02:00,64.0,62.2,30.06,WNW,293,0.0,0.0,94,0.00,,,0.00,0.00,VWS V14.01,2013-08-20 05:02:00,
2013-08-20 01:06:00,63.9,62.1,30.07,WNW,293,0.0,0.0,94,0.00,,,0.00,0.00,VWS V14.01,2013-08-20 05:06:00,
2013-08-20 01:07:00,63.9,62.1,30.07,WNW,293,0.0,0.0,94,0.00,,,0.00,0.00,VWS V14.01,2013-08-20 05:07:00,
2013-08-20 01:11:00,63.8,62.0,30.07,WNW,293,0.0,0.0,94,0.00,,,0.00,0.00,VWS V14.01,2013-08-20 05:11:00,
2013-08-20 01:12:00,63.8,62.0,30.07,WNW,293,0.0,0.0,94,0.00,,,0.00,0.00,VWS V14.01,2013-08-20 05:12:00,
2013-08-20 01:16:00,63.7,61.6,30.07,WNW,293,0.0,0.0,93,0.00,,,0.00,0.00,VWS V14.01,2013-08-20 05:16:00,
2013-08-20 01:17:00,63.7,62.0,30.07,WNW,293,0.0,0.0,94,0.00,,,0.00,0.00,VWS V14.01,2013-08-20 05:17:00,
2013-08-20 01:21:00,63.7,62.0,30.07,WNW,293,0.0,0.0,94,0.00,,,0.00,0.00,VWS V14.01,2013-08-20 05:21:00,
2013-08-20 01:22:00,63.7,62.0,30.07,WNW,293,0.0,0.0,94,0.00,,,0.00,0.00,VWS V14.01,2013-08-20 05:22:00,
2013-08-20 01:26:00,63.6,61.8,30.07,WNW,293,0.0,0.0,94,0.00,,,0.00,0.00,VWS V14.01,2013-08-20 05:26:00,
2013-08-20 01:27:00,63.6,61.8,30.07,WNW,293,0.0,0.0,94,0.00,,,0.00,0.00,VWS V14.01,2013-08-20 05:27:00,
2013-08-20 01:31:00,63.6,61.8,30.07,WNW,293,0.0,0.0,94,0.00,,,0.00,0.00,VWS V14.01,2013-08-20 05:31:00,
2013-08-20 01:32:00,63.6,61.8,30.07,WNW,293,0.0,0.0,94,0.00,,,0.00,0.00,VWS V14.01,2013-08-20 05:32:00,
2013-08-20 01:36:00,63.6,61.8,30.07,WNW,293,0.0,0.0,94,0.00,,,0.00,0.00,VWS V14.01,2013-08-20 05:36:00,
2013-08-20 01:37:00,63.6,61.8,30.07,WNW,293,0.0,0.0,94,0.00,,,0.00,0.00,VWS V14.01,2013-08-20 05:37:00,
2013-08-20 01:41:00,63.6,61.8,30.07,WNW,293,0.0,0.0,94,0.00,,,0.00,0.00,VWS V14.01,2013-08-20 05:41:00,
2013-08-20 01:42:00,63.5,61.8,30.07,WNW,293,0.0,0.0,94,0.00,,,0.00,0.00,VWS V14.01,2013-08-20 05:42:00,
2013-08-20 01:46:00,63.6,62.2,30.07,WNW,293,0.0,0.0,95,0.00,,,0.00,0.00,VWS V14.01,2013-08-20 05:46:00,
2013-08-20 01:47:00,63.6,62.2,30.07,WNW,293,0.0,0.0,95,0.00,,,0.00,0.00,VWS V14.01,2013-08-20 05:47:00,
2013-08-20 01:51:00,63.5,62.0,30.07,WNW,293,0.0,0.0,95,0.00,,,0.00,0.00,VWS V14.01,2013-08-20 05:51:00,
2013-08-20 01:52:00,63.5,62.0,30.07,WNW,293,0.0,0.0,95,0.00,,,0.00,0.00,VWS V14.01,2013-08-20 05:52:00,
2013-08-20 01:56:00,63.5,62.0,30.07,WNW,293,0.0,0.0,95,0.00,,,0.00,0.00,VWS V14.01,2013-08-20 05:56:00,
2013-08-20 01:57:00,63.5,62.0,30.07,WNW,293,0.0,0.0,95,0.00,,,0.00,0.00,VWS V14.01,2013-08-20 05:57:00,
2013-08-20 02:02:00,63.5,62.0,30.06,WNW,293,0.0,0.0,95,0.00,,,0.00,0.00,VWS V14.01,2013-08-20 06:02:00,
2013-08-20 02:07:00,63.8,62.3,30.06,WNW,293,0.0,0.0,95,0.00,,,0.00,0.00,VWS V14.01,2013-08-20 06:07:00,
2013-08-20 02:12:00,63.9,62.4,30.06,WNW,293,0.0,0.0,95,0.00,,,0.00,0.00,VWS V14.01,2013-08-20 06:12:00,
2013-08-20 02:17:00,64.1,62.6,30.06,WNW,293,0.0,0.0,95,0.00,,,0.00,0.00,VWS V14.01,2013-08-20 06:17:00,
2013-08-20 02:22:00,64.1,62.6,30.06,WNW,293,0.0,0.0,95,0.00,,,0.00,0.00,VWS V14.01,2013-08-20 06:22:00,
2013-08-20 02:27:00,64.1,62.6,30.05,WNW,293,0.0,0.0,95,0.00,,,0.00,0.00,VWS V14.01,2013-08-20 06:27:00,
2013-08-20 02:32:00,64.1,62.6,30.06,WNW,293,0.0,0.0,95,0.00,,,0.00,0.00,VWS V14.01,2013-08-20 06:32:00,
2013-08-20 02:37:00,64.1,62.6,30.05,WNW,293,0.0,0.0,95,0.00,,,0.00,0.00,VWS V14.01,2013-08-20 06:37:00,
2013-08-20 02:42:00,64.2,62.7,30.05,WNW,293,0.0,0.0,95,0.00,,,0.00,0.00,VWS V14.01,2013-08-20 06:42:00,
2013-08-20 02:47:00,64.3,62.8,30.05,WNW,293,0.0,0.0,95,0.00,,,0.00,0.00,VWS V14.01,2013-08-20 06:47:00,
2013-08-20 02:52:00,64.3,62.8,30.05,WNW,293,0.0,0.0,95,0.00,,,0.00,0.00,VWS V14.01,2013-08-20 06:52:00,
2013-08-20 02:57:00,64.3,62.8,30.05,WNW,293,0.0,0.0,95,0.00,,,0.00,0.00,VWS V14.01,2013-08-20 06:57:00,
2013-08-20 02:58:00,64.3,62.8,30.05,WNW,293,0.0,0.0,95,0.00,,,0.00,0.00,VWS V14.01,2013-08-20 06:58:00,
2013-08-20 03:02:00,64.2,62.7,30.05,WNW,293,0.0,0.0,95,0.00,,,0.00,0.00,VWS V14.01,2013-08-20 07:02:00,
2013-08-20 03:03:00,64.2,62.7,30.05,WNW,293,0.0,0.0,95,0.00,,,0.00,0.00,VWS V14.01,2013-08-20 07:03:00,
2013-08-20 03:07:00,64.2,62.7,30.05,WNW,293,0.0,0.0,95,0.00,,,0.00,0.00,VWS V14.01,2013-08-20 07:07:00,
2013-08-20 03:08:00,64.2,62.7,30.05,WNW,293,0.0,0.0,95,0.00,,,0.00,0.00,VWS V14.01,2013-08-20 07:08:00,
2013-08-20 03:12:00,64.3,62.8,30.05,WNW,293,0.0,0.0,95,0.00,,,0.00,0.00,VWS V14.01,2013-08-20 07:12:00,
2013-08-20 03:13:00,64.3,62.8,30.05,WNW,293,0.0,0.0,95,0.00,,,0.00,0.00,VWS V14.01,2013-08-20 07:13:00,
2013-08-20 03:18:00,64.3,62.8,30.05,WNW,293,0.0,0.0,95,0.00,,,0.00,0.00,VWS V14.01,2013-08-20 07:18:00,
2013-08-20 03:23:00,64.3,62.8,30.05,WNW,293,0.0,0.0,95,0.00,,,0.00,0.00,VWS V14.01,2013-08-20 07:23:00,
2013-08-20 03:28:00,64.1,62.6,30.05,WNW,293,0.0,0.0,95,0.00,,,0.00,0.00,VWS V14.01,2013-08-20 07:28:00,
2013-08-20 03:33:00,64.0,62.2,30.05,WNW,293,0.0,0.0,94,0.00,,,0.00,0.00,VWS V14.01,2013-08-20 07:33:00,
2013-08-20 03:38:00,63.9,62.1,30.05,WNW,293,0.0,0.0,94,0.00,,,0.00,0.00,VWS V14.01,2013-08-20 07:38:00,
2013-08-20 03:43:00,63.8,62.3,30.05,WNW,293,0.0,0.0,95,0.00,,,0.00,0.00,VWS V14.01,2013-08-20 07:43:00,
2013-08-20 03:48:00,63.6,62.2,30.05,WNW,293,0.0,0.0,95,0.00,,,0.00,0.00,VWS V14.01,2013-08-20 07:48:00,
2013-08-20 03:53:00,63.6,62.2,30.06,WNW,293,0.0,0.0,95,0.00,,,0.00,0.00,VWS V14.01,2013-08-20 07:53:00,
2013-08-20 03:54:00,63.6,62.2,30.06,WNW,293,0.0,0.0,95,0.00,,,0.00,0.00,VWS V14.01,2013-08-20 07:54:00,
2013-08-20 03:58:00,63.5,62.0,30.06,WNW,293,0.0,0.0,95,0.00,,,0.00,0.00,VWS V14.01,2013-08-20 07:58:00,
2013-08-20 03:59:00,63.5,62.0,30.06,WNW,293,0.0,0.0,95,0.00,,,0.00,0.00,VWS V14.01,2013-08-20 07:59:00,
2013-08-20 04:03:00,63.5,62.0,30.06,WNW,293,0.0,0.0,95,0.00,,,0.00,0.00,VWS V14.01,2013-08-20 08:03:00,
2013-08-20 04:04:00,63.5,62.0,30.06,WNW,293,0.0,0.0,95,0.00,,,0.00,0.00,VWS V14.01,2013-08-20 08:04:00,
2013-08-20 04:08:00,63.4,62.0,30.06,WNW,293,0.0,0.0,95,0.00,,,0.00,0.00,VWS V14.01,2013-08-20 08:08:00,
2013-08-20 04:09:00,63.4,62.0,30.06,WNW,293,0.0,0.0,95,0.00,,,0.00,0.00,VWS V14.01,2013-08-20 08:09:00,
2013-08-20 04:13:00,63.2,61.8,30.06,WNW,293,0.0,0.0,95,0.00,,,0.00,0.00,VWS V14.01,2013-08-20 08:13:00,
2013-08-20 04:14:00,63.2,61.8,30.06,WNW,293,0.0,0.0,95,0.00,,,0.00,0.00,VWS V14.01,2013-08-20 08:14:00,
2013-08-20 04:18:00,63.2,61.8,30.06,WNW,293,0.0,0.0,95,0.00,,,0.00,0.00,VWS V14.01,2013-08-20 08:18:00,
2013-08-20 04:19:00,63.2,61.8,30.06,WNW,293,0.0,0.0,95,0.00,,,0.00,0.00,VWS V14.01,2013-08-20 08:19:00,
2013-08-20 04:23:00,63.1,61.7,30.06,WNW,293,0.0,0.0,95,0.00,,,0.00,0.00,VWS V14.01,2013-08-20 08:23:00,
2013-08-20 04:24:00,63.1,61.7,30.06,WNW,293,0.0,0.0,95,0.00,,,0.00,0.00,VWS V14.01,2013-08-20 08:24:00,
2013-08-20 04:28:00,63.0,61.5,30.06,WNW,293,0.0,0.0,95,0.00,,,0.00,0.00,VWS V14.01,2013-08-20 08:28:00,
2013-08-20 04:29:00,63.0,61.5,30.06,WNW,293,0.0,0.0,95,0.00,,,0.00,0.00,VWS V14.01,2013-08-20 08:29:00,
2013-08-20 04:33:00,63.0,61.5,30.06,WNW,293,0.0,0.0,95,0.00,,,0.00,0.00,VWS V14.01,2013-08-20 08:33:00,
2013-08-20 04:34:00,63.0,61.5,30.06,WNW,293,0.0,0.0,95,0.00,,,0.00,0.00,VWS V14.01,2013-08-20 08:34:00,
2013-08-20 04:38:00,62.9,61.5,30.06,WNW,293,0.0,0.0,95,0.00,,,0.00,0.00,VWS V14.01,2013-08-20 08:38:00,
2013-08-20 04:39:00,62.9,61.5,30.06,WNW,293,0.0,0.0,95,0.00,,,0.00,0.00,VWS V14.01,2013-08-20 08:39:00,
2013-08-20 04:40:00,62.9,61.5,30.06,WNW,293,0.0,0.0,95,0.00,,,0.00,0.00,VWS V14.01,2013-08-20 08:40:00,
2013-08-20 04:43:00,62.8,61.3,30.06,WNW,293,0.0,0.0,95,0.00,,,0.00,0.00,VWS V14.01,2013-08-20 08:43:00,
2013-08-20 04:44:00,62.8,61.3,30.06,WNW,293,0.0,0.0,95,0.00,,,0.00,0.00,VWS V14.01,2013-08-20 08:44:00,
2013-08-20 04:45:00,62.8,61.3,30.06,WNW,293,0.0,0.0,95,0.00,,,0.00,0.00,VWS V14.01,2013-08-20 08:45:00,
2013-08-20 04:48:00,62.8,61.3,30.06,WNW,293,0.0,0.0,95,0.00,,,0.00,0.00,VWS V14.01,2013-08-20 08:48:00,
2013-08-20 04:49:00,62.8,61.3,30.06,WNW,293,0.0,0.0,95,0.00,,,0.00,0.00,VWS V14.01,2013-08-20 08:49:00,
2013-08-20 04:50:00,62.7,61.2,30.06,WNW,293,0.0,0.0,95,0.00,,,0.00,0.00,VWS V14.01,2013-08-20 08:50:00,
2013-08-20 04:54:00,62.7,61.2,30.06,WNW,293,0.0,0.0,95,0.00,,,0.00,0.00,VWS V14.01,2013-08-20 08:54:00,
2013-08-20 04:55:00,62.7,61.2,30.06,WNW,293,0.0,0.0,95,0.00,,,0.00,0.00,VWS V14.01,2013-08-20 08:55:00,
2013-08-20 04:59:00,62.6,61.2,30.06,WNW,293,0.0,0.0,95,0.00,,,0.00,0.00,VWS V14.01,2013-08-20 08:59:00,
2013-08-20 05:00:00,62.6,61.2,30.05,WNW,293,0.0,0.0,95,0.00,,,0.00,0.00,VWS V14.01,2013-08-20 09:00:00,
2013-08-20 05:04:00,62.7,61.5,30.05,WNW,293,0.0,0.0,96,0.00,,,0.00,0.00,VWS V14.01,2013-08-20 09:04:00,
2013-08-20 05:05:00,62.7,61.5,30.05,WNW,293,0.0,0.0,96,0.00,,,0.00,0.00,VWS V14.01,2013-08-20 09:05:00,
2013-08-20 05:09:00,62.7,61.5,30.05,WNW,293,0.0,0.0,96,0.00,,,0.00,0.00,VWS V14.01,2013-08-20 09:09:00,
2013-08-20 05:10:00,62.7,61.5,30.05,WNW,293,0.0,0.0,96,0.00,,,0.00,0.00,VWS V14.01,2013-08-20 09:10:00,
2013-08-20 05:14:00,62.7,61.2,30.05,WNW,293,0.0,0.0,95,0.00,,,0.00,0.00,VWS V14.01,2013-08-20 09:14:00,
2013-08-20 05:15:00,62.6,61.2,30.05,WNW,293,0.0,0.0,95,0.00,,,0.00,0.00,VWS V14.01,2013-08-20 09:15:00,
2013-08-20 05:19:00,62.6,61.5,30.05,WNW,293,0.0,0.0,96,0.00,,,0.00,0.00,VWS V14.01,2013-08-20 09:19:00,
2013-08-20 05:20:00,62.6,61.5,30.05,WNW,293,0.0,0.0,96,0.00,,,0.00,0.00,VWS V14.01,2013-08-20 09:20:00,
2013-08-20 05:24:00,62.5,61.3,30.05,WNW,293,0.0,0.0,96,0.00,,,0.00,0.00,VWS V14.01,2013-08-20 09:24:00,
2013-08-20 05:25:00,62.5,61.3,30.05,WNW,293,0.0,0.0,96,0.00,,,0.00,0.00,VWS V14.01,2013-08-20 09:25:00,
2013-08-20 05:29:00,62.3,60.8,30.05,WNW,293,0.0,0.0,95,0.00,,,0.00,0.00,VWS V14.01,2013-08-20 09:29:00,
2013-08-20 05:30:00,62.3,60.8,30.05,WNW,293,0.0,0.0,95,0.00,,,0.00,0.00,VWS V14.01,2013-08-20 09:30:00,
2013-08-20 05:34:00,62.2,60.8,30.05,WNW,293,0.0,0.0,95,0.00,,,0.00,0.00,VWS V14.01,2013-08-20 09:34:00,
2013-08-20 05:35:00,62.2,60.8,30.05,WNW,293,0.0,0.0,95,0.00,,,0.00,0.00,VWS V14.01,2013-08-20 09:35:00,
2013-08-20 05:36:00,62.2,60.8,30.05,WNW,293,0.0,0.0,95,0.00,,,0.00,0.00,VWS V14.01,2013-08-20 09:36:00,
2013-08-20 05:39:00,62.1,60.7,30.05,WNW,293,0.0,0.0,95,0.00,,,0.00,0.00,VWS V14.01,2013-08-20 09:39:00,
2013-08-20 05:40:00,62.1,60.7,30.05,WNW,293,0.0,0.0,95,0.00,,,0.00,0.00,VWS V14.01,2013-08-20 09:40:00,
2013-08-20 05:41:00,62.1,60.7,30.05,WNW,293,0.0,0.0,95,0.00,,,0.00,0.00,VWS V14.01,2013-08-20 09:41:00,
2013-08-20 05:44:00,62.1,60.7,30.05,WNW,293,0.0,0.0,95,0.00,,,0.00,0.00,VWS V14.01,2013-08-20 09:44:00,
2013-08-20 05:45:00,62.0,60.6,30.05,WNW,293,0.0,0.0,95,0.00,,,0.00,0.00,VWS V14.01,2013-08-20 09:45:00,
2013-08-20 05:46:00,62.0,60.6,30.05,WNW,293,0.0,0.0,95,0.00,,,0.00,0.00,VWS V14.01,2013-08-20 09:46:00,
2013-08-20 05:49:00,62.0,60.8,30.05,WNW,293,0.0,0.0,96,0.00,,,0.00,0.00,VWS V14.01,2013-08-20 09:49:00,
2013-08-20 05:50:00,62.0,60.8,30.05,WNW,293,0.0,0.0,96,0.00,,,0.00,0.00,VWS V14.01,2013-08-20 09:50:00,
2013-08-20 05:51:00,62.0,60.8,30.05,WNW,293,0.0,0.0,96,0.00,,,0.00,0.00,VWS V14.01,2013-08-20 09:51:00,
2013-08-20 05:54:00,61.9,60.8,30.06,WNW,293,0.0,0.0,96,0.00,,,0.00,0.00,VWS V14.01,2013-08-20 09:54:00,
2013-08-20 05:55:00,62.0,60.8,30.05,WNW,293,0.0,0.0,96,0.00,,,0.00,0.00,VWS V14.01,2013-08-20 09:55:00,
2013-08-20 05:56:00,62.0,60.8,30.05,WNW,293,0.0,0.0,96,0.00,,,0.00,0.00,VWS V14.01,2013-08-20 09:56:00,
2013-08-20 05:59:00,61.9,60.8,30.06,WNW,293,0.0,0.0,96,0.00,,,0.00,0.00,VWS V14.01,2013-08-20 09:59:00,
2013-08-20 06:00:00,61.9,60.8,30.06,WNW,293,0.0,0.0,96,0.00,,,0.00,0.00,VWS V14.01,2013-08-20 10:00:00,
2013-08-20 06:01:00,61.9,60.8,30.06,WNW,293,0.0,0.0,96,0.00,,,0.00,0.00,VWS V14.01,2013-08-20 10:01:00,
2013-08-20 06:04:00,61.9,60.8,30.06,WNW,293,0.0,0.0,96,0.00,,,0.00,0.00,VWS V14.01,2013-08-20 10:04:00,
2013-08-20 06:05:00,61.9,60.8,30.06,WNW,293,0.0,0.0,96,0.00,,,0.00,0.00,VWS V14.01,2013-08-20 10:05:00,
2013-08-20 06:06:00,61.9,60.8,30.06,WNW,293,0.0,0.0,96,0.00,,,0.00,0.00,VWS V14.01,2013-08-20 10:06:00,
2013-08-20 06:09:00,61.8,60.7,30.06,WNW,293,0.0,0.0,96,0.00,,,0.00,0.00,VWS V14.01,2013-08-20 10:09:00,
2013-08-20 06:10:00,61.8,60.7,30.06,WNW,293,0.0,0.0,96,0.00,,,0.00,0.00,VWS V14.01,2013-08-20 10:10:00,
2013-08-20 06:11:00,61.8,60.7,30.06,WNW,293,0.0,0.0,96,0.00,,,0.00,0.00,VWS V14.01,2013-08-20 10:11:00,
2013-08-20 06:14:00,61.8,60.7,30.06,WNW,293,0.0,0.0,96,0.00,,,0.00,0.00,VWS V14.01,2013-08-20 10:14:00,
2013-08-20 06:15:00,61.8,60.7,30.06,WNW,293,0.0,0.0,96,0.00,,,0.00,0.00,VWS V14.01,2013-08-20 10:15:00,
2013-08-20 06:16:00,61.8,60.7,30.06,WNW,293,0.0,0.0,96,0.00,,,0.00,0.00,VWS V14.01,2013-08-20 10:16:00,
2013-08-20 06:19:00,61.7,60.5,30.06,WNW,293,0.0,0.0,96,0.00,,,0.00,0.00,VWS V14.01,2013-08-20 10:19:00,
2013-08-20 06:20:00,61.7,60.5,30.06,WNW,293,0.0,0.0,96,0.00,,,0.00,0.00,VWS V14.01,2013-08-20 10:20:00,
2013-08-20 06:21:00,61.7,60.5,30.06,WNW,293,0.0,0.0,96,0.00,,,0.00,0.00,VWS V14.01,2013-08-20 10:21:00,
2013-08-20 06:25:00,61.6,60.5,30.06,WNW,293,0.0,0.0,96,0.00,,,0.00,0.00,VWS V14.01,2013-08-20 10:25:00,
2013-08-20 06:26:00,61.6,60.5,30.06,WNW,293,0.0,0.0,96,0.00,,,0.00,0.00,VWS V14.01,2013-08-20 10:26:00,
2013-08-20 06:30:00,61.5,60.3,30.06,WNW,293,0.0,0.0,96,0.00,,,0.00,0.00,VWS V14.01,2013-08-20 10:30:00,
2013-08-20 06:31:00,61.5,60.3,30.06,WNW,293,0.0,0.0,96,0.00,,,0.00,0.00,VWS V14.01,2013-08-20 10:31:00,
2013-08-20 06:35:00,61.4,60.2,30.07,WNW,293,0.0,0.0,96,0.00,,,0.00,0.00,VWS V14.01,2013-08-20 10:35:00,
2013-08-20 06:36:00,61.4,60.2,30.07,WNW,293,0.0,0.0,96,0.00,,,0.00,0.00,VWS V14.01,2013-08-20 10:36:00,
2013-08-20 06:40:00,61.3,60.2,30.07,WNW,293,0.0,0.0,96,0.00,,,0.00,0.00,VWS V14.01,2013-08-20 10:40:00,
2013-08-20 06:41:00,61.3,60.2,30.07,WNW,293,0.0,0.0,96,0.00,,,0.00,0.00,VWS V14.01,2013-08-20 10:41:00,
2013-08-20 06:45:00,61.4,60.2,30.07,WNW,293,0.0,0.0,96,0.00,,,0.00,0.00,VWS V14.01,2013-08-20 10:45:00,
2013-08-20 06:46:00,61.4,60.2,30.07,WNW,293,0.0,0.0,96,0.00,,,0.00,0.00,VWS V14.01,2013-08-20 10:46:00,
2013-08-20 06:50:00,61.4,60.2,30.07,WNW,293,0.0,0.0,96,0.00,,,0.00,0.00,VWS V14.01,2013-08-20 10:50:00,
2013-08-20 06:52:00,61.4,60.2,30.07,WNW,293,0.0,0.0,96,0.00,,,0.00,0.00,VWS V14.01,2013-08-20 10:52:00,
2013-08-20 06:55:00,61.5,60.3,30.07,WNW,293,0.0,0.0,96,0.00,,,0.00,0.00,VWS V14.01,2013-08-20 10:55:00,
2013-08-20 06:57:00,61.5,60.3,30.07,WNW,293,0.0,0.0,96,0.00,,,0.00,0.00,VWS V14.01,2013-08-20 10:57:00,
2013-08-20 07:00:00,61.5,60.3,30.08,WNW,293,0.0,0.0,96,0.00,,,0.00,0.00,VWS V14.01,2013-08-20 11:00:00,
2013-08-20 07:01:00,61.5,60.3,30.07,WNW,293,0.0,0.0,96,0.00,,,0.00,0.00,VWS V14.01,2013-08-20 11:01:00,
2013-08-20 07:02:00,61.5,60.3,30.08,WNW,293,0.0,0.0,96,0.00,,,0.00,0.00,VWS V14.01,2013-08-20 11:02:00,
2013-08-20 07:05:00,61.5,60.3,30.08,WNW,293,0.0,0.0,96,0.00,,,0.00,0.00,VWS V14.01,2013-08-20 11:05:00,
2013-08-20 07:06:00,61.5,60.3,30.08,WNW,293,0.0,0.0,96,0.00,,,0.00,0.00,VWS V14.01,2013-08-20 11:06:00,
2013-08-20 07:07:00,61.5,60.3,30.08,WNW,293,0.0,0.0,96,0.00,,,0.00,0.00,VWS V14.01,2013-08-20 11:07:00,
2013-08-20 07:10:00,61.4,60.2,30.08,WNW,293,0.0,0.0,96,0.00,,,0.00,0.00,VWS V14.01,2013-08-20 11:10:00,
2013-08-20 07:11:00,61.4,60.2,30.08,WNW,293,0.0,0.0,96,0.00,,,0.00,0.00,VWS V14.01,2013-08-20 11:11:00,
2013-08-20 07:12:00,61.4,60.2,30.08,WNW,293,0.0,0.0,96,0.00,,,0.00,0.00,VWS V14.01,2013-08-20 11:12:00,
2013-08-20 07:15:00,61.4,60.2,30.08,WNW,293,0.0,0.0,96,0.00,,,0.00,0.00,VWS V14.01,2013-08-20 11:15:00,
2013-08-20 07:16:00,61.4,60.2,30.08,WNW,293,0.0,0.0,96,0.00,,,0.00,0.00,VWS V14.01,2013-08-20 11:16:00,
2013-08-20 07:17:00,61.5,60.3,30.08,WNW,293,0.0,0.0,96,0.00,,,0.00,0.00,VWS V14.01,2013-08-20 11:17:00,
2013-08-20 07:20:00,61.4,60.2,30.08,WNW,293,0.0,0.0,96,0.00,,,0.00,0.00,VWS V14.01,2013-08-20 11:20:00,
2013-08-20 07:21:00,61.4,60.2,30.08,WNW,293,0.0,0.0,96,0.00,,,0.00,0.00,VWS V14.01,2013-08-20 11:21:00,
2013-08-20 07:22:00,61.4,60.2,30.08,WNW,293,0.0,0.0,96,0.00,,,0.00,0.00,VWS V14.01,2013-08-20 11:22:00,
2013-08-20 07:25:00,61.4,60.2,30.08,WNW,293,0.0,0.0,96,0.00,,,0.00,0.00,VWS V14.01,2013-08-20 11:25:00,
2013-08-20 07:26:00,61.4,60.2,30.08,WNW,293,0.0,0.0,96,0.00,,,0.00,0.00,VWS V14.01,2013-08-20 11:26:00,
2013-08-20 07:27:00,61.4,60.2,30.08,WNW,293,0.0,0.0,96,0.00,,,0.00,0.00,VWS V14.01,2013-08-20 11:27:00,
2013-08-20 07:30:00,61.4,60.2,30.08,WNW,293,0.0,0.0,96,0.00,,,0.00,0.00,VWS V14.01,2013-08-20 11:30:00,
2013-08-20 07:31:00,61.4,60.2,30.08,WNW,293,0.0,0.0,96,0.00,,,0.00,0.00,VWS V14.01,2013-08-20 11:31:00,
2013-08-20 07:32:00,61.4,60.2,30.08,WNW,293,0.0,0.0,96,0.00,,,0.00,0.00,VWS V14.01,2013-08-20 11:32:00,
2013-08-20 07:35:00,61.4,60.2,30.08,WNW,293,0.0,0.0,96,0.00,,,0.00,0.00,VWS V14.01,2013-08-20 11:35:00,
2013-08-20 07:36:00,61.4,60.2,30.08,WNW,293,0.0,0.0,96,0.00,,,0.00,0.00,VWS V14.01,2013-08-20 11:36:00,
2013-08-20 07:37:00,61.5,60.3,30.08,WNW,293,0.0,0.0,96,0.00,,,0.00,0.00,VWS V14.01,2013-08-20 11:37:00,
2013-08-20 07:40:00,61.6,60.5,30.08,WNW,293,0.0,0.0,96,0.00,,,0.00,0.00,VWS V14.01,2013-08-20 11:40:00,
2013-08-20 07:41:00,61.5,60.3,30.08,WNW,293,0.0,0.0,96,0.00,,,0.00,0.00,VWS V14.01,2013-08-20 11:41:00,
2013-08-20 07:42:00,61.6,60.5,30.08,WNW,293,0.0,0.0,96,0.00,,,0.00,0.00,VWS V14.01,2013-08-20 11:42:00,
2013-08-20 07:45:00,61.7,60.8,30.08,WNW,293,0.0,0.0,97,0.00,,,0.00,0.00,VWS V14.01,2013-08-20 11:45:00,
2013-08-20 07:46:00,61.7,60.8,30.08,WNW,293,0.0,0.0,97,0.00,,,0.00,0.00,VWS V14.01,2013-08-20 11:46:00,
2013-08-20 07:47:00,61.7,60.8,30.09,WNW,293,0.0,0.0,97,0.00,,,0.00,0.00,VWS V14.01,2013-08-20 11:47:00,
2013-08-20 07:50:00,61.8,60.9,30.09,WNW,293,0.0,0.0,97,0.00,,,0.00,0.00,VWS V14.01,2013-08-20 11:50:00,
2013-08-20 07:51:00,61.8,60.9,30.09,WNW,293,0.0,0.0,97,0.00,,,0.00,0.00,VWS V14.01,2013-08-20 11:51:00,
2013-08-20 07:52:00,61.9,61.0,30.09,WNW,293,0.0,0.0,97,0.00,,,0.00,0.00,VWS V14.01,2013-08-20 11:52:00,
2013-08-20 07:56:00,62.2,61.3,30.09,WNW,293,0.0,0.0,97,0.00,,,0.00,0.00,VWS V14.01,2013-08-20 11:56:00,
2013-08-20 07:57:00,62.2,61.3,30.09,WNW,293,0.0,0.0,97,0.00,,,0.00,0.00,VWS V14.01,2013-08-20 11:57:00,
2013-08-20 08:01:00,62.4,61.5,30.09,WNW,293,0.0,0.0,97,0.00,,,0.00,0.00,VWS V14.01,2013-08-20 12:01:00,
2013-08-20 08:02:00,62.5,61.6,30.09,WNW,293,0.0,0.0,97,0.00,,,0.00,0.00,VWS V14.01,2013-08-20 12:02:00,
2013-08-20 08:06:00,62.8,61.9,30.09,WNW,293,0.0,0.0,97,0.00,,,0.00,0.00,VWS V14.01,2013-08-20 12:06:00,
2013-08-20 08:07:00,63.0,62.1,30.09,WNW,293,0.0,0.0,97,0.00,,,0.00,0.00,VWS V14.01,2013-08-20 12:07:00,
2013-08-20 08:11:00,63.3,62.4,30.09,WNW,293,0.0,0.0,97,0.00,,,0.00,0.00,VWS V14.01,2013-08-20 12:11:00,
2013-08-20 08:12:00,63.4,62.2,30.09,WNW,293,0.0,0.0,96,0.00,,,0.00,0.00,VWS V14.01,2013-08-20 12:12:00,
2013-08-20 08:16:00,63.8,62.6,30.09,WNW,293,0.0,0.0,96,0.00,,,0.00,0.00,VWS V14.01,2013-08-20 12:16:00,
2013-08-20 08:17:00,63.9,62.7,30.09,WNW,293,0.0,0.0,96,0.00,,,0.00,0.00,VWS V14.01,2013-08-20 12:17:00,
2013-08-20 08:21:00,64.4,62.9,30.09,WNW,293,0.0,0.0,95,0.00,,,0.00,0.00,VWS V14.01,2013-08-20 12:21:00,
2013-08-20 08:22:00,64.5,63.0,30.09,WNW,293,0.0,0.0,95,0.00,,,0.00,0.00,VWS V14.01,2013-08-20 12:22:00,
2013-08-20 08:26:00,64.9,63.1,30.09,WNW,293,0.0,0.0,94,0.00,,,0.00,0.00,VWS V14.01,2013-08-20 12:26:00,
2013-08-20 08:27:00,65.0,63.2,30.09,WNW,293,0.0,0.0,94,0.00,,,0.00,0.00,VWS V14.01,2013-08-20 12:27:00,
2013-08-20 08:28:00,65.1,63.3,30.09,WNW,293,0.0,0.0,94,0.00,,,0.00,0.00,VWS V14.01,2013-08-20 12:28:00,
2013-08-20 08:31:00,65.4,63.3,30.10,WNW,293,0.0,0.0,93,0.00,,,0.00,0.00,VWS V14.01,2013-08-20 12:31:00,
2013-08-20 08:32:00,65.4,63.0,30.10,WNW,293,0.0,0.0,92,0.00,,,0.00,0.00,VWS V14.01,2013-08-20 12:32:00,
2013-08-20 08:33:00,65.5,63.1,30.10,WNW,293,0.0,0.0,92,0.00,,,0.00,0.00,VWS V14.01,2013-08-20 12:33:00,
2013-08-20 08:36:00,65.8,63.1,30.10,WNW,293,0.0,0.0,91,0.00,,,0.00,0.00,VWS V14.01,2013-08-20 12:36:00,
2013-08-20 08:37:00,65.9,63.2,30.10,WNW,293,0.0,0.0,91,0.00,,,0.00,0.00,VWS V14.01,2013-08-20 12:37:00,
2013-08-20 08:38:00,65.9,63.2,30.10,WNW,293,0.0,0.0,91,0.00,,,0.00,0.00,VWS V14.01,2013-08-20 12:38:00,
2013-08-20 08:41:00,66.2,63.2,30.10,WNW,293,0.0,0.0,90,0.00,,,0.00,0.00,VWS V14.01,2013-08-20 12:41:00,
2013-08-20 08:42:00,66.3,63.3,30.10,WNW,293,0.0,0.0,90,0.00,,,0.00,0.00,VWS V14.01,2013-08-20 12:42:00,
2013-08-20 08:43:00,66.4,63.4,30.10,WNW,293,0.0,0.0,90,0.00,,,0.00,0.00,VWS V14.01,2013-08-20 12:43:00,
2013-08-20 08:46:00,66.7,63.4,30.10,WNW,293,0.0,0.0,89,0.00,,,0.00,0.00,VWS V14.01,2013-08-20 12:46:00,
2013-08-20 08:47:00,66.8,63.5,30.10,WNW,293,0.0,0.0,89,0.00,,,0.00,0.00,VWS V14.01,2013-08-20 12:47:00,
2013-08-20 08:48:00,66.8,63.8,30.10,WNW,293,0.0,0.0,90,0.00,,,0.00,0.00,VWS V14.01,2013-08-20 12:48:00,
2013-08-20 08:51:00,67.2,63.8,30.10,WNW,293,0.0,0.0,89,0.00,,,0.00,0.00,VWS V14.01,2013-08-20 12:51:00,
2013-08-20 08:52:00,67.3,63.6,30.10,WNW,293,0.0,1.0,88,0.00,,,0.00,0.00,VWS V14.01,2013-08-20 12:52:00,
2013-08-20 08:53:00,67.4,64.1,30.10,WNW,293,0.0,1.0,89,0.00,,,0.00,0.00,VWS V14.01,2013-08-20 12:53:00,
2013-08-20 08:56:00,67.6,63.9,30.10,WNW,293,0.0,1.0,88,0.00,,,0.00,0.00,VWS V14.01,2013-08-20 12:56:00,
2013-08-20 08:57:00,67.6,63.9,30.10,WNW,293,0.0,0.0,88,0.00,,,0.00,0.00,VWS V14.01,2013-08-20 12:57:00,
2013-08-20 08:58:00,67.7,64.0,30.10,WNW,293,0.0,3.0,88,0.00,,,0.00,0.00,VWS V14.01,2013-08-20 12:58:00,
2013-08-20 09:01:00,67.8,64.1,30.10,WNW,293,0.0,0.0,88,0.00,,,0.00,0.00,VWS V14.01,2013-08-20 13:01:00,
2013-08-20 09:02:00,67.9,64.2,30.10,WNW,293,0.0,0.0,88,0.00,,,0.00,0.00,VWS V14.01,2013-08-20 13:02:00,
2013-08-20 09:03:00,68.0,64.0,30.10,WNW,293,0.0,0.0,87,0.00,,,0.00,0.00,VWS V14.01,2013-08-20 13:03:00,
2013-08-20 09:06:00,68.2,64.2,30.10,WNW,293,0.0,2.0,87,0.00,,,0.00,0.00,VWS V14.01,2013-08-20 13:06:00,
2013-08-20 09:07:00,68.2,64.2,30.10,WNW,293,0.0,1.0,87,0.00,,,0.00,0.00,VWS V14.01,2013-08-20 13:07:00,
2013-08-20 09:08:00,68.3,64.3,30.10,WNW,293,0.0,1.0,87,0.00,,,0.00,0.00,VWS V14.01,2013-08-20 13:08:00,
2013-08-20 09:11:00,68.5,64.2,30.10,WNW,293,0.0,0.0,86,0.00,,,0.00,0.00,VWS V14.01,2013-08-20 13:11:00,
2013-08-20 09:12:00,68.6,64.2,30.10,WNW,293,0.0,0.0,86,0.00,,,0.00,0.00,VWS V14.01,2013-08-20 13:12:00,
2013-08-20 09:13:00,68.6,64.2,30.10,WNW,293,0.0,1.0,86,0.00,,,0.00,0.00,VWS V14.01,2013-08-20 13:13:00,
2013-08-20 09:16:00,68.8,64.4,30.11,WNW,293,0.0,1.0,86,0.00,,,0.00,0.00,VWS V14.01,2013-08-20 13:16:00,
2013-08-20 09:17:00,68.8,64.4,30.11,WNW,293,0.0,1.0,86,0.00,,,0.00,0.00,VWS V14.01,2013-08-20 13:17:00,
2013-08-20 09:18:00,68.9,64.6,30.11,WNW,293,0.0,1.0,86,0.00,,,0.00,0.00,VWS V14.01,2013-08-20 13:18:00,
2013-08-20 09:21:00,69.1,64.4,30.11,WNW,293,0.0,1.0,85,0.00,,,0.00,0.00,VWS V14.01,2013-08-20 13:21:00,
2013-08-20 09:22:00,69.1,64.4,30.11,WNW,293,0.0,0.0,85,0.00,,,0.00,0.00,VWS V14.01,2013-08-20 13:22:00,
2013-08-20 09:23:00,69.2,64.5,30.11,WNW,293,0.0,2.0,85,0.00,,,0.00,0.00,VWS V14.01,2013-08-20 13:23:00,
2013-08-20 09:26:00,69.5,64.8,30.11,WNW,293,0.0,3.0,85,0.00,,,0.00,0.00,VWS V14.01,2013-08-20 13:26:00,
2013-08-20 09:27:00,69.5,64.8,30.11,WNW,293,0.0,0.0,85,0.00,,,0.00,0.00,VWS V14.01,2013-08-20 13:27:00,
2013-08-20 09:28:00,69.5,64.8,30.11,WNW,293,0.0,0.0,85,0.00,,,0.00,0.00,VWS V14.01,2013-08-20 13:28:00,
2013-08-20 09:31:00,69.7,65.0,30.11,WNW,293,1.0,1.0,85,0.00,,,0.00,0.00,VWS V14.01,2013-08-20 13:31:00,
2013-08-20 09:32:00,69.7,65.0,30.11,WNW,293,1.0,2.0,85,0.00,,,0.00,0.00,VWS V14.01,2013-08-20 13:32:00,
2013-08-20 09:33:00,69.8,64.8,30.11,WNW,293,0.0,0.0,84,0.00,,,0.00,0.00,VWS V14.01,2013-08-20 13:33:00,
2013-08-20 09:36:00,70.1,65.1,30.11,WNW,293,1.0,2.0,84,0.00,,,0.00,0.00,VWS V14.01,2013-08-20 13:36:00,
2013-08-20 09:37:00,70.2,65.1,30.11,WNW,293,0.0,1.0,84,0.00,,,0.00,0.00,VWS V14.01,2013-08-20 13:37:00,
2013-08-20 09:38:00,70.2,64.8,30.11,WNW,293,0.0,0.0,83,0.00,,,0.00,0.00,VWS V14.01,2013-08-20 13:38:00,
2013-08-20 09:41:00,70.7,64.9,30.11,WNW,293,0.0,3.0,82,0.00,,,0.00,0.00,VWS V14.01,2013-08-20 13:41:00,
2013-08-20 09:42:00,70.7,64.9,30.11,WNW,293,0.0,1.0,82,0.00,,,0.00,0.00,VWS V14.01,2013-08-20 13:42:00,
2013-08-20 09:43:00,70.8,65.0,30.11,WNW,293,0.0,1.0,82,0.00,,,0.00,0.00,VWS V14.01,2013-08-20 13:43:00,
2013-08-20 09:46:00,71.2,65.1,30.11,WNW,293,0.0,0.0,81,0.00,,,0.00,0.00,VWS V14.01,2013-08-20 13:46:00,
2013-08-20 09:47:00,71.2,65.1,30.11,WNW,293,0.0,0.0,81,0.00,,,0.00,0.00,VWS V14.01,2013-08-20 13:47:00,
2013-08-20 09:48:00,71.4,65.3,30.11,WNW,293,0.0,1.0,81,0.00,,,0.00,0.00,VWS V14.01,2013-08-20 13:48:00,
2013-08-20 09:49:00,71.5,65.7,30.11,WNW,293,0.0,0.0,82,0.00,,,0.00,0.00,VWS V14.01,2013-08-20 13:49:00,
2013-08-20 09:51:00,71.9,65.4,30.11,WNW,293,0.0,3.0,80,0.00,,,0.00,0.00,VWS V14.01,2013-08-20 13:51:00,
2013-08-20 09:52:00,71.9,65.4,30.11,WNW,293,0.0,1.0,80,0.00,,,0.00,0.00,VWS V14.01,2013-08-20 13:52:00,
2013-08-20 09:53:00,72.0,65.5,30.11,WNW,293,0.0,0.0,80,0.00,,,0.00,0.00,VWS V14.01,2013-08-20 13:53:00,
2013-08-20 09:54:00,72.1,65.6,30.11,WNW,293,0.0,0.0,80,0.00,,,0.00,0.00,VWS V14.01,2013-08-20 13:54:00,
2013-08-20 09:56:00,72.3,65.4,30.11,WNW,293,0.0,0.0,79,0.00,,,0.00,0.00,VWS V14.01,2013-08-20 13:56:00,
2013-08-20 09:57:00,72.4,65.9,30.11,WNW,293,0.0,0.0,80,0.00,,,0.00,0.00,VWS V14.01,2013-08-20 13:57:00,
2013-08-20 09:58:00,72.5,66.0,30.11,WNW,293,0.0,1.0,80,0.00,,,0.00,0.00,VWS V14.01,2013-08-20 13:58:00,
2013-08-20 09:59:00,72.6,65.7,30.11,WNW,293,1.0,1.0,79,0.00,,,0.00,0.00,VWS V14.01,2013-08-20 13:59:00,
2013-08-20 10:02:00,72.8,65.6,30.11,WNW,293,0.0,1.0,78,0.00,,,0.00,0.00,VWS V14.01,2013-08-20 14:02:00,
2013-08-20 10:03:00,73.0,65.7,30.11,WNW,293,0.0,1.0,78,0.00,,,0.00,0.00,VWS V14.01,2013-08-20 14:03:00,
2013-08-20 10:04:00,73.0,65.4,30.11,WNW,293,0.0,1.0,77,0.00,,,0.00,0.00,VWS V14.01,2013-08-20 14:04:00,
2013-08-20 10:07:00,73.3,65.7,30.11,WNW,293,0.0,0.0,77,0.00,,,0.00,0.00,VWS V14.01,2013-08-20 14:07:00,
2013-08-20 10:08:00,73.3,65.7,30.11,WNW,293,0.0,1.0,77,0.00,,,0.00,0.00,VWS V14.01,2013-08-20 14:08:00,
2013-08-20 10:09:00,73.4,65.4,30.11,WNW,293,0.0,0.0,76,0.00,,,0.00,0.00,VWS V14.01,2013-08-20 14:09:00,
2013-08-20 10:12:00,73.7,65.7,30.11,WNW,293,0.0,0.0,76,0.00,,,0.00,0.00,VWS V14.01,2013-08-20 14:12:00,
2013-08-20 10:13:00,73.7,65.7,30.12,WNW,293,0.0,0.0,76,0.00,,,0.00,0.00,VWS V14.01,2013-08-20 14:13:00,
2013-08-20 10:14:00,73.8,65.8,30.11,WNW,293,0.0,1.0,76,0.00,,,0.00,0.00,VWS V14.01,2013-08-20 14:14:00,
2013-08-20 10:17:00,74.0,65.6,30.11,WNW,293,0.0,1.0,75,0.00,,,0.00,0.00,VWS V14.01,2013-08-20 14:17:00,
2013-08-20 10:18:00,74.0,65.6,30.11,WNW,293,0.0,0.0,75,0.00,,,0.00,0.00,VWS V14.01,2013-08-20 14:18:00,
2013-08-20 10:19:00,74.1,65.7,30.11,WNW,293,2.0,3.0,75,0.00,,,0.00,0.00,VWS V14.01,2013-08-20 14:19:00,
2013-08-20 10:22:00,74.3,65.5,30.11,WNW,293,0.0,0.0,74,0.00,,,0.00,0.00,VWS V14.01,2013-08-20 14:22:00,
2013-08-20 10:23:00,74.3,65.5,30.11,WNW,293,0.0,0.0,74,0.00,,,0.00,0.00,VWS V14.01,2013-08-20 14:23:00,
2013-08-20 10:24:00,74.4,65.6,30.11,WNW,293,0.0,0.0,74,0.00,,,0.00,0.00,VWS V14.01,2013-08-20 14:24:00,
2013-08-20 10:25:00,74.4,66.0,30.11,WNW,293,0.0,0.0,75,0.00,,,0.00,0.00,VWS V14.01,2013-08-20 14:25:00,
2013-08-20 10:27:00,74.6,65.4,30.11,WNW,293,0.0,0.0,73,0.00,,,0.00,0.00,VWS V14.01,2013-08-20 14:27:00,
2013-08-20 10:28:00,74.7,65.5,30.11,WNW,293,0.0,0.0,73,0.00,,,0.00,0.00,VWS V14.01,2013-08-20 14:28:00,
2013-08-20 10:29:00,74.9,65.7,30.11,WNW,293,0.0,0.0,73,0.00,,,0.00,0.00,VWS V14.01,2013-08-20 14:29:00,
2013-08-20 10:30:00,74.9,65.7,30.11,WNW,293,0.0,0.0,73,0.00,,,0.00,0.00,VWS V14.01,2013-08-20 14:30:00,
2013-08-20 10:32:00,75.3,66.1,30.11,WNW,293,0.0,1.0,73,0.00,,,0.00,0.00,VWS V14.01,2013-08-20 14:32:00,
2013-08-20 10:33:00,75.4,65.8,30.11,WNW,293,1.0,1.0,72,0.00,,,0.00,0.00,VWS V14.01,2013-08-20 14:33:00,
2013-08-20 10:34:00,75.5,65.8,30.12,WNW,293,0.0,1.0,72,0.00,,,0.00,0.00,VWS V14.01,2013-08-20 14:34:00,
2013-08-20 10:35:00,75.6,65.5,30.12,WNW,293,0.0,0.0,71,0.00,,,0.00,0.00,VWS V14.01,2013-08-20 14:35:00,
2013-08-20 10:37:00,75.8,65.7,30.12,WNW,293,0.0,1.0,71,0.00,,,0.00,0.00,VWS V14.01,2013-08-20 14:37:00,
2013-08-20 10:38:00,75.9,65.4,30.12,WNW,293,0.0,0.0,70,0.00,,,0.00,0.00,VWS V14.01,2013-08-20 14:38:00,
2013-08-20 10:39:00,75.9,65.4,30.12,WNW,293,0.0,0.0,70,0.00,,,0.00,0.00,VWS V14.01,2013-08-20 14:39:00,
2013-08-20 10:40:00,76.0,65.9,30.11,WNW,293,0.0,0.0,71,0.00,,,0.00,0.00,VWS V14.01,2013-08-20 14:40:00,
2013-08-20 10:42:00,76.2,66.1,30.12,WNW,293,1.0,1.0,71,0.00,,,0.00,0.00,VWS V14.01,2013-08-20 14:42:00,
2013-08-20 10:43:00,76.2,66.1,30.12,WNW,293,1.0,2.0,71,0.00,,,0.00,0.00,VWS V14.01,2013-08-20 14:43:00,
2013-08-20 10:44:00,76.3,66.2,30.12,WNW,293,0.0,1.0,71,0.00,,,0.00,0.00,VWS V14.01,2013-08-20 14:44:00,
2013-08-20 10:45:00,76.4,66.3,30.12,WNW,293,0.0,1.0,71,0.00,,,0.00,0.00,VWS V14.01,2013-08-20 14:45:00,
2013-08-20 10:47:00,76.5,66.0,30.12,WNW,293,0.0,1.0,70,0.00,,,0.00,0.00,VWS V14.01,2013-08-20 14:47:00,
2013-08-20 10:48:00,76.6,66.1,30.12,WNW,293,0.0,0.0,70,0.00,,,0.00,0.00,VWS V14.01,2013-08-20 14:48:00,
2013-08-20 10:49:00,76.6,66.1,30.12,WNW,293,0.0,1.0,70,0.00,,,0.00,0.00,VWS V14.01,2013-08-20 14:49:00,
2013-08-20 10:50:00,76.8,66.3,30.12,WNW,293,0.0,0.0,70,0.00,,,0.00,0.00,VWS V14.01,2013-08-20 14:50:00,
2013-08-20 10:52:00,77.1,66.6,30.12,WNW,293,0.0,0.0,70,0.00,,,0.00,0.00,VWS V14.01,2013-08-20 14:52:00,
2013-08-20 10:53:00,77.1,66.6,30.12,WNW,293,0.0,0.0,70,0.00,,,0.00,0.00,VWS V14.01,2013-08-20 14:53:00,
2013-08-20 10:54:00,77.3,66.8,30.12,WNW,293,0.0,0.0,70,0.00,,,0.00,0.00,VWS V14.01,2013-08-20 14:54:00,
2013-08-20 10:55:00,77.6,66.6,30.12,WNW,293,0.0,0.0,69,0.00,,,0.00,0.00,VWS V14.01,2013-08-20 14:55:00,
2013-08-20 10:57:00,78.0,67.0,30.12,WNW,293,0.0,0.0,69,0.00,,,0.00,0.00,VWS V14.01,2013-08-20 14:57:00,
2013-08-20 10:58:00,78.1,67.1,30.12,WNW,293,0.0,0.0,69,0.00,,,0.00,0.00,VWS V14.01,2013-08-20 14:58:00,
2013-08-20 10:59:00,78.2,66.8,30.12,WNW,293,0.0,0.0,68,0.00,,,0.00,0.00,VWS V14.01,2013-08-20 14:59:00,
2013-08-20 11:00:00,78.5,66.6,30.12,WNW,293,0.0,1.0,67,0.00,,,0.00,0.00,VWS V14.01,2013-08-20 15:00:00,
2013-08-20 11:03:00,78.9,66.6,30.12,WNW,293,0.0,0.0,66,0.00,,,0.00,0.00,VWS V14.01,2013-08-20 15:03:00,
2013-08-20 11:04:00,79.0,66.7,30.12,WNW,293,2.0,3.0,66,0.00,,,0.00,0.00,VWS V14.01,2013-08-20 15:04:00,
2013-08-20 11:05:00,79.1,65.9,30.12,WNW,293,0.0,1.0,64,0.00,,,0.00,0.00,VWS V14.01,2013-08-20 15:05:00,
2013-08-20 11:08:00,79.2,66.9,30.12,WNW,293,0.0,1.0,66,0.00,,,0.00,0.00,VWS V14.01,2013-08-20 15:08:00,
2013-08-20 11:09:00,79.3,67.0,30.12,WNW,293,0.0,0.0,66,0.00,,,0.00,0.00,VWS V14.01,2013-08-20 15:09:00,
2013-08-20 11:10:00,79.4,67.1,30.12,WNW,293,0.0,1.0,66,0.00,,,0.00,0.00,VWS V14.01,2013-08-20 15:10:00,
2013-08-20 11:13:00,79.6,67.2,30.12,WNW,293,0.0,1.0,66,0.00,,,0.00,0.00,VWS V14.01,2013-08-20 15:13:00,
2013-08-20 11:14:00,79.6,65.9,30.12,WNW,293,1.0,2.0,63,0.00,,,0.00,0.00,VWS V14.01,2013-08-20 15:14:00,
2013-08-20 11:16:00,79.6,66.8,30.12,WNW,293,0.0,0.0,65,0.00,,,0.00,0.00,VWS V14.01,2013-08-20 15:16:00,
2013-08-20 11:18:00,79.8,66.1,30.12,WNW,293,0.0,1.0,63,0.00,,,0.00,0.00,VWS V14.01,2013-08-20 15:18:00,
2013-08-20 11:19:00,79.9,66.7,30.12,WNW,293,1.0,3.0,64,0.00,,,0.00,0.00,VWS V14.01,2013-08-20 15:19:00,
2013-08-20 11:21:00,79.9,66.2,30.12,WNW,293,0.0,0.0,63,0.00,,,0.00,0.00,VWS V14.01,2013-08-20 15:21:00,
2013-08-20 11:23:00,80.0,66.3,30.12,WNW,293,0.0,1.0,63,0.00,,,0.00,0.00,VWS V14.01,2013-08-20 15:23:00,
2013-08-20 11:24:00,80.0,65.4,30.12,WNW,293,0.0,3.0,61,0.00,,,0.00,0.00,VWS V14.01,2013-08-20 15:24:00,
2013-08-20 11:26:00,80.1,65.4,30.12,WNW,293,0.0,1.0,61,0.00,,,0.00,0.00,VWS V14.01,2013-08-20 15:26:00,
2013-08-20 11:28:00,80.2,66.0,30.12,WNW,293,1.0,2.0,62,0.00,,,0.00,0.00,VWS V14.01,2013-08-20 15:28:00,
2013-08-20 11:29:00,80.2,66.0,30.12,WNW,293,0.0,1.0,62,0.00,,,0.00,0.00,VWS V14.01,2013-08-20 15:29:00,
2013-08-20 11:31:00,80.3,65.6,30.12,WNW,293,3.0,3.0,61,0.00,,,0.00,0.00,VWS V14.01,2013-08-20 15:31:00,
2013-08-20 11:33:00,80.3,65.2,30.12,WNW,293,0.0,1.0,60,0.00,,,0.00,0.00,VWS V14.01,2013-08-20 15:33:00,
2013-08-20 11:34:00,80.3,65.2,30.12,WNW,293,0.0,0.0,60,0.00,,,0.00,0.00,VWS V14.01,2013-08-20 15:34:00,
2013-08-20 11:36:00,80.4,65.7,30.11,WNW,293,0.0,0.0,61,0.00,,,0.00,0.00,VWS V14.01,2013-08-20 15:36:00,
2013-08-20 11:38:00,80.6,65.9,30.11,WNW,293,0.0,3.0,61,0.00,,,0.00,0.00,VWS V14.01,2013-08-20 15:38:00,
2013-08-20 11:39:00,80.7,66.0,30.11,WNW,293,0.0,0.0,61,0.00,,,0.00,0.00,VWS V14.01,2013-08-20 15:39:00,
2013-08-20 11:41:00,80.8,65.2,30.11,WNW,293,0.0,0.0,59,0.00,,,0.00,0.00,VWS V14.01,2013-08-20 15:41:00,
2013-08-20 11:43:00,80.8,64.7,30.11,WNW,293,0.0,1.0,58,0.00,,,0.00,0.00,VWS V14.01,2013-08-20 15:43:00,
2013-08-20 11:44:00,80.8,65.2,30.11,WNW,293,0.0,0.0,59,0.00,,,0.00,0.00,VWS V14.01,2013-08-20 15:44:00,
2013-08-20 11:45:00,80.9,65.7,30.12,WNW,293,0.0,0.0,60,0.00,,,0.00,0.00,VWS V14.01,2013-08-20 15:45:00,
2013-08-20 11:46:00,80.9,66.2,30.11,WNW,293,0.0,1.0,61,0.00,,,0.00,0.00,VWS V14.01,2013-08-20 15:46:00,
2013-08-20 11:48:00,81.0,66.3,30.11,WNW,293,0.0,2.0,61,0.00,,,0.00,0.00,VWS V14.01,2013-08-20 15:48:00,
2013-08-20 11:49:00,81.1,65.9,30.11,WNW,293,0.0,1.0,60,0.00,,,0.00,0.00,VWS V14.01,2013-08-20 15:49:00,
2013-08-20 11:50:00,81.2,66.5,30.11,WNW,293,1.0,1.0,61,0.00,,,0.00,0.00,VWS V14.01,2013-08-20 15:50:00,
2013-08-20 11:51:00,81.3,66.6,30.11,WNW,293,0.0,1.0,61,0.00,,,0.00,0.00,VWS V14.01,2013-08-20 15:51:00,
2013-08-20 11:53:00,81.5,66.3,30.11,WNW,293,0.0,0.0,60,0.00,,,0.00,0.00,VWS V14.01,2013-08-20 15:53:00,
2013-08-20 11:54:00,81.6,66.4,30.11,WNW,293,0.0,0.0,60,0.00,,,0.00,0.00,VWS V14.01,2013-08-20 15:54:00,
2013-08-20 11:55:00,81.7,66.5,30.11,WNW,293,3.0,3.0,60,0.00,,,0.00,0.00,VWS V14.01,2013-08-20 15:55:00,
2013-08-20 11:56:00,81.7,66.9,30.11,WNW,293,2.0,3.0,61,0.00,,,0.00,0.00,VWS V14.01,2013-08-20 15:56:00,
2013-08-20 11:58:00,81.7,66.5,30.11,WNW,293,0.0,1.0,60,0.00,,,0.00,0.00,VWS V14.01,2013-08-20 15:58:00,
2013-08-20 11:59:00,81.7,66.5,30.11,WNW,293,3.0,4.0,60,0.00,,,0.00,0.00,VWS V14.01,2013-08-20 15:59:00,
2013-08-20 12:00:00,81.8,66.6,30.11,WNW,293,1.0,3.0,60,0.00,,,0.00,0.00,VWS V14.01,2013-08-20 16:00:00,
2013-08-20 12:01:00,81.8,66.6,30.11,WNW,293,0.0,3.0,60,0.00,,,0.00,0.00,VWS V14.01,2013-08-20 16:01:00,
2013-08-20 12:03:00,81.8,66.1,30.11,WNW,293,0.0,1.0,59,0.00,,,0.00,0.00,VWS V14.01,2013-08-20 16:03:00,
2013-08-20 12:04:00,81.8,66.1,30.11,WNW,293,0.0,1.0,59,0.00,,,0.00,0.00,VWS V14.01,2013-08-20 16:04:00,
2013-08-20 12:05:00,81.8,67.1,30.11,WNW,293,1.0,2.0,61,0.00,,,0.00,0.00,VWS V14.01,2013-08-20 16:05:00,
2013-08-20 12:06:00,81.9,67.1,30.11,WNW,293,3.0,5.0,61,0.00,,,0.00,0.00,VWS V14.01,2013-08-20 16:06:00,
2013-08-20 12:08:00,81.8,66.6,30.11,WNW,293,3.0,3.0,60,0.00,,,0.00,0.00,VWS V14.01,2013-08-20 16:08:00,
2013-08-20 12:09:00,81.8,66.6,30.11,WNW,293,3.0,4.0,60,0.00,,,0.00,0.00,VWS V14.01,2013-08-20 16:09:00,
2013-08-20 12:10:00,81.7,66.5,30.11,WNW,293,2.0,4.0,60,0.00,,,0.00,0.00,VWS V14.01,2013-08-20 16:10:00,
2013-08-20 12:11:00,81.6,66.9,30.11,WNW,293,1.0,1.0,61,0.00,,,0.00,0.00,VWS V14.01,2013-08-20 16:11:00,
2013-08-20 12:13:00,81.7,66.5,30.11,WNW,293,0.0,2.0,60,0.00,,,0.00,0.00,VWS V14.01,2013-08-20 16:13:00,
2013-08-20 12:14:00,81.7,66.5,30.11,WNW,293,0.0,1.0,60,0.00,,,0.00,0.00,VWS V14.01,2013-08-20 16:14:00,
2013-08-20 12:15:00,81.7,67.4,30.11,WNW,293,0.0,1.0,62,0.00,,,0.00,0.00,VWS V14.01,2013-08-20 16:15:00,
2013-08-20 12:17:00,81.8,67.1,30.11,WNW,293,0.0,1.0,61,0.00,,,0.00,0.00,VWS V14.01,2013-08-20 16:17:00,
2013-08-20 12:18:00,81.8,67.1,30.11,WNW,293,0.0,2.0,61,0.00,,,0.00,0.00,VWS V14.01,2013-08-20 16:18:00,
2013-08-20 12:19:00,81.7,66.9,30.11,WNW,293,0.0,1.0,61,0.00,,,0.00,0.00,VWS V14.01,2013-08-20 16:19:00,
2013-08-20 12:20:00,81.7,66.5,30.11,WNW,293,0.0,1.0,60,0.00,,,0.00,0.00,VWS V14.01,2013-08-20 16:20:00,
2013-08-20 12:22:00,81.7,66.5,30.11,WNW,293,2.0,3.0,60,0.00,,,0.00,0.00,VWS V14.01,2013-08-20 16:22:00,
2013-08-20 12:23:00,81.6,65.9,30.11,WNW,293,1.0,4.0,59,0.00,,,0.00,0.00,VWS V14.01,2013-08-20 16:23:00,
2013-08-20 12:24:00,81.6,65.9,30.11,WNW,293,0.0,1.0,59,0.00,,,0.00,0.00,VWS V14.01,2013-08-20 16:24:00,
2013-08-20 12:25:00,81.4,65.7,30.11,WNW,293,0.0,2.0,59,0.00,,,0.00,0.00,VWS V14.01,2013-08-20 16:25:00,
2013-08-20 12:27:00,81.2,66.0,30.11,WNW,293,1.0,1.0,60,0.00,,,0.00,0.00,VWS V14.01,2013-08-20 16:27:00,
2013-08-20 12:28:00,81.0,66.3,30.11,WNW,293,0.0,0.0,61,0.00,,,0.00,0.00,VWS V14.01,2013-08-20 16:28:00,
2013-08-20 12:29:00,81.0,66.3,30.11,WNW,293,0.0,0.0,61,0.00,,,0.00,0.00,VWS V14.01,2013-08-20 16:29:00,
2013-08-20 12:30:00,81.0,66.3,30.11,WNW,293,0.0,2.0,61,0.00,,,0.00,0.00,VWS V14.01,2013-08-20 16:30:00,
2013-08-20 12:32:00,80.9,66.7,30.11,WNW,293,0.0,0.0,62,0.00,,,0.00,0.00,VWS V14.01,2013-08-20 16:32:00,
2013-08-20 12:33:00,80.8,65.2,30.11,WNW,293,0.0,0.0,59,0.00,,,0.00,0.00,VWS V14.01,2013-08-20 16:33:00,
2013-08-20 12:34:00,80.8,65.2,30.11,WNW,293,0.0,0.0,59,0.00,,,0.00,0.00,VWS V14.01,2013-08-20 16:34:00,
2013-08-20 12:35:00,80.8,64.7,30.11,WNW,293,0.0,1.0,58,0.00,,,0.00,0.00,VWS V14.01,2013-08-20 16:35:00,
2013-08-20 12:37:00,80.7,64.1,30.11,WNW,293,0.0,0.0,57,0.00,,,0.00,0.00,VWS V14.01,2013-08-20 16:37:00,
2013-08-20 12:38:00,80.8,64.7,30.11,WNW,293,0.0,0.0,58,0.00,,,0.00,0.00,VWS V14.01,2013-08-20 16:38:00,
2013-08-20 12:39:00,80.8,64.7,30.11,WNW,293,0.0,0.0,58,0.00,,,0.00,0.00,VWS V14.01,2013-08-20 16:39:00,
2013-08-20 12:40:00,80.8,64.2,30.11,WNW,293,0.0,0.0,57,0.00,,,0.00,0.00,VWS V14.01,2013-08-20 16:40:00,
2013-08-20 12:42:00,80.8,64.2,30.11,WNW,293,0.0,0.0,57,0.00,,,0.00,0.00,VWS V14.01,2013-08-20 16:42:00,
2013-08-20 12:43:00,80.8,64.2,30.11,WNW,293,0.0,0.0,57,0.00,,,0.00,0.00,VWS V14.01,2013-08-20 16:43:00,
2013-08-20 12:44:00,80.8,64.2,30.11,WNW,293,0.0,0.0,57,0.00,,,0.00,0.00,VWS V14.01,2013-08-20 16:44:00,
2013-08-20 12:45:00,80.9,64.8,30.11,WNW,293,0.0,0.0,58,0.00,,,0.00,0.00,VWS V14.01,2013-08-20 16:45:00,
2013-08-20 12:47:00,80.9,65.2,30.10,WNW,293,0.0,0.0,59,0.00,,,0.00,0.00,VWS V14.01,2013-08-20 16:47:00,
2013-08-20 12:48:00,80.9,64.2,30.11,WNW,293,0.0,0.0,57,0.00,,,0.00,0.00,VWS V14.01,2013-08-20 16:48:00,
2013-08-20 12:49:00,81.0,64.3,30.11,WNW,293,0.0,0.0,57,0.00,,,0.00,0.00,VWS V14.01,2013-08-20 16:49:00,
2013-08-20 12:50:00,81.0,64.8,30.11,WNW,293,0.0,2.0,58,0.00,,,0.00,0.00,VWS V14.01,2013-08-20 16:50:00,
2013-08-20 12:52:00,81.0,65.3,30.11,WNW,293,0.0,1.0,59,0.00,,,0.00,0.00,VWS V14.01,2013-08-20 16:52:00,
2013-08-20 12:54:00,81.0,64.3,30.11,WNW,293,0.0,0.0,57,0.00,,,0.00,0.00,VWS V14.01,2013-08-20 16:54:00,
2013-08-20 12:55:00,81.0,63.8,30.10,WNW,293,0.0,0.0,56,0.00,,,0.00,0.00,VWS V14.01,2013-08-20 16:55:00,
2013-08-20 12:57:00,81.1,63.9,30.10,WNW,293,0.0,0.0,56,0.00,,,0.00,0.00,VWS V14.01,2013-08-20 16:57:00,
2013-08-20 12:59:00,81.2,64.0,30.10,WNW,293,0.0,0.0,56,0.00,,,0.00,0.00,VWS V14.01,2013-08-20 16:59:00,
2013-08-20 13:00:00,81.2,63.5,30.10,WNW,293,0.0,0.0,55,0.00,,,0.00,0.00,VWS V14.01,2013-08-20 17:00:00,
2013-08-20 13:02:00,81.3,63.6,30.10,WNW,293,0.0,0.0,55,0.00,,,0.00,0.00,VWS V14.01,2013-08-20 17:02:00,
2013-08-20 13:04:00,81.3,63.6,30.10,WNW,293,0.0,0.0,55,0.00,,,0.00,0.00,VWS V14.01,2013-08-20 17:04:00,
2013-08-20 13:05:00,81.2,64.0,30.11,WNW,293,1.0,1.0,56,0.00,,,0.00,0.00,VWS V14.01,2013-08-20 17:05:00,
2013-08-20 13:07:00,81.2,64.5,30.11,WNW,293,1.0,1.0,57,0.00,,,0.00,0.00,VWS V14.01,2013-08-20 17:07:00,
2013-08-20 13:09:00,81.1,64.9,30.11,WNW,293,3.0,4.0,58,0.00,,,0.00,0.00,VWS V14.01,2013-08-20 17:09:00,
2013-08-20 13:10:00,81.1,64.4,30.11,WNW,293,1.0,1.0,57,0.00,,,0.00,0.00,VWS V14.01,2013-08-20 17:10:00,
2013-08-20 13:11:00,81.0,64.8,30.10,WNW,293,0.0,0.0,58,0.00,,,0.00,0.00,VWS V14.01,2013-08-20 17:11:00,
2013-08-20 13:12:00,81.1,65.4,30.11,WNW,293,1.0,4.0,59,0.00,,,0.00,0.00,VWS V14.01,2013-08-20 17:12:00,
2013-08-20 13:14:00,81.1,64.4,30.11,WNW,293,1.0,1.0,57,0.00,,,0.00,0.00,VWS V14.01,2013-08-20 17:14:00,
2013-08-20 13:15:00,81.1,64.4,30.11,WNW,293,1.0,1.0,57,0.00,,,0.00,0.00,VWS V14.01,2013-08-20 17:15:00,
2013-08-20 13:16:00,81.2,64.5,30.11,WNW,293,1.0,1.0,57,0.00,,,0.00,0.00,VWS V14.01,2013-08-20 17:16:00,
2013-08-20 13:17:00,81.1,64.4,30.11,WNW,293,1.0,4.0,57,0.00,,,0.00,0.00,VWS V14.01,2013-08-20 17:17:00,
2013-08-20 13:19:00,81.1,64.4,30.10,WNW,293,2.0,4.0,57,0.00,,,0.00,0.00,VWS V14.01,2013-08-20 17:19:00,
2013-08-20 13:20:00,81.1,64.9,30.10,WNW,293,1.0,1.0,58,0.00,,,0.00,0.00,VWS V14.01,2013-08-20 17:20:00,
2013-08-20 13:21:00,81.1,65.4,30.10,WNW,293,2.0,3.0,59,0.00,,,0.00,0.00,VWS V14.01,2013-08-20 17:21:00,
2013-08-20 13:22:00,81.1,65.4,30.10,WNW,293,0.0,4.0,59,0.00,,,0.00,0.00,VWS V14.01,2013-08-20 17:22:00,
2013-08-20 13:24:00,81.1,64.9,30.10,WNW,293,1.0,2.0,58,0.00,,,0.00,0.00,VWS V14.01,2013-08-20 17:24:00,
2013-08-20 13:25:00,81.1,64.9,30.10,WNW,293,0.0,4.0,58,0.00,,,0.00,0.00,VWS V14.01,2013-08-20 17:25:00,
2013-08-20 13:26:00,81.1,64.9,30.10,WNW,293,0.0,0.0,58,0.00,,,0.00,0.00,VWS V14.01,2013-08-20 17:26:00,
2013-08-20 13:27:00,81.2,65.5,30.10,WNW,293,0.0,0.0,59,0.00,,,0.00,0.00,VWS V14.01,2013-08-20 17:27:00,
2013-08-20 13:29:00,81.2,65.5,30.10,WNW,293,1.0,3.0,59,0.00,,,0.00,0.00,VWS V14.01,2013-08-20 17:29:00,
2013-08-20 13:30:00,81.2,65.5,30.10,WNW,293,0.0,0.0,59,0.00,,,0.00,0.00,VWS V14.01,2013-08-20 17:30:00,
2013-08-20 13:31:00,81.2,65.5,30.10,WNW,293,0.0,1.0,59,0.00,,,0.00,0.00,VWS V14.01,2013-08-20 17:31:00,
2013-08-20 13:32:00,81.3,66.1,30.10,WNW,293,4.0,4.0,60,0.00,,,0.00,0.00,VWS V14.01,2013-08-20 17:32:00,
2013-08-20 13:34:00,81.3,65.6,30.10,WNW,293,0.0,0.0,59,0.00,,,0.00,0.00,VWS V14.01,2013-08-20 17:34:00,
2013-08-20 13:35:00,81.3,65.6,30.10,WNW,293,0.0,0.0,59,0.00,,,0.00,0.00,VWS V14.01,2013-08-20 17:35:00,
2013-08-20 13:36:00,81.4,65.2,30.10,WNW,293,0.0,1.0,58,0.00,,,0.00,0.00,VWS V14.01,2013-08-20 17:36:00,
2013-08-20 13:37:00,81.5,65.3,30.10,WNW,293,0.0,3.0,58,0.00,,,0.00,0.00,VWS V14.01,2013-08-20 17:37:00,
2013-08-20 13:39:00,81.7,65.5,30.10,WNW,293,0.0,4.0,58,0.00,,,0.00,0.00,VWS V14.01,2013-08-20 17:39:00,
2013-08-20 13:40:00,81.8,66.1,30.10,WNW,293,1.0,1.0,59,0.00,,,0.00,0.00,VWS V14.01,2013-08-20 17:40:00,
2013-08-20 13:41:00,81.9,66.2,30.09,WNW,293,2.0,4.0,59,0.00,,,0.00,0.00,VWS V14.01,2013-08-20 17:41:00,
2013-08-20 13:42:00,82.0,66.3,30.09,WNW,293,1.0,1.0,59,0.00,,,0.00,0.00,VWS V14.01,2013-08-20 17:42:00,
2013-08-20 13:44:00,82.2,65.0,30.09,WNW,293,1.0,3.0,56,0.00,,,0.00,0.00,VWS V14.01,2013-08-20 17:44:00,
2013-08-20 13:45:00,82.3,65.1,30.09,WNW,293,0.0,1.0,56,0.00,,,0.00,0.00,VWS V14.01,2013-08-20 17:45:00,
2013-08-20 13:46:00,82.3,64.5,30.09,WNW,293,3.0,5.0,55,0.00,,,0.00,0.00,VWS V14.01,2013-08-20 17:46:00,
2013-08-20 13:48:00,82.3,64.5,30.09,WNW,293,0.0,2.0,55,0.00,,,0.00,0.00,VWS V14.01,2013-08-20 17:48:00,
2013-08-20 13:49:00,82.3,64.0,30.09,WNW,293,0.0,1.0,54,0.00,,,0.00,0.00,VWS V14.01,2013-08-20 17:49:00,
2013-08-20 13:50:00,82.3,64.0,30.09,WNW,293,0.0,0.0,54,0.00,,,0.00,0.00,VWS V14.01,2013-08-20 17:50:00,
2013-08-20 13:51:00,82.4,65.1,30.09,WNW,293,0.0,0.0,56,0.00,,,0.00,0.00,VWS V14.01,2013-08-20 17:51:00,
2013-08-20 13:53:00,82.7,64.9,30.09,WNW,293,2.0,4.0,55,0.00,,,0.00,0.00,VWS V14.01,2013-08-20 17:53:00,
2013-08-20 13:54:00,82.8,65.0,30.09,WNW,293,0.0,4.0,55,0.00,,,0.00,0.00,VWS V14.01,2013-08-20 17:54:00,
2013-08-20 13:55:00,82.8,65.0,30.09,WNW,293,0.0,0.0,55,0.00,,,0.00,0.00,VWS V14.01,2013-08-20 17:55:00,
2013-08-20 13:56:00,82.9,65.1,30.09,WNW,293,0.0,0.0,55,0.00,,,0.00,0.00,VWS V14.01,2013-08-20 17:56:00,
2013-08-20 13:58:00,83.1,65.3,30.09,WNW,293,1.0,1.0,55,0.00,,,0.00,0.00,VWS V14.01,2013-08-20 17:58:00,
2013-08-20 13:59:00,83.1,64.8,30.09,WNW,293,5.0,5.0,54,0.00,,,0.00,0.00,VWS V14.01,2013-08-20 17:59:00,
2013-08-20 14:00:00,83.1,64.8,30.09,WNW,293,6.0,6.0,54,0.00,,,0.00,0.00,VWS V14.01,2013-08-20 18:00:00,
2013-08-20 14:01:00,83.0,64.7,30.09,WNW,293,1.0,3.0,54,0.00,,,0.00,0.00,VWS V14.01,2013-08-20 18:01:00,
2013-08-20 14:03:00,82.9,65.1,30.09,WNW,293,3.0,3.0,55,0.00,,,0.00,0.00,VWS V14.01,2013-08-20 18:03:00,
2013-08-20 14:04:00,82.8,65.5,30.09,WNW,293,0.0,0.0,56,0.00,,,0.00,0.00,VWS V14.01,2013-08-20 18:04:00,
2013-08-20 14:05:00,82.8,65.5,30.09,WNW,293,0.0,0.0,56,0.00,,,0.00,0.00,VWS V14.01,2013-08-20 18:05:00,
2013-08-20 14:06:00,82.8,66.0,30.09,WNW,293,0.0,3.0,57,0.00,,,0.00,0.00,VWS V14.01,2013-08-20 18:06:00,
2013-08-20 14:08:00,82.9,65.1,30.08,WNW,293,1.0,1.0,55,0.00,,,0.00,0.00,VWS V14.01,2013-08-20 18:08:00,
2013-08-20 14:10:00,83.1,65.8,30.08,WNW,293,0.0,0.0,56,0.00,,,0.00,0.00,VWS V14.01,2013-08-20 18:10:00,
2013-08-20 14:11:00,83.4,65.6,30.08,WNW,293,5.0,7.0,55,0.00,,,0.00,0.00,VWS V14.01,2013-08-20 18:11:00,
2013-08-20 14:13:00,83.6,64.7,30.08,WNW,293,2.0,2.0,53,0.00,,,0.00,0.00,VWS V14.01,2013-08-20 18:13:00,
2013-08-20 14:15:00,83.6,64.1,30.08,WNW,293,0.0,2.0,52,0.00,,,0.00,0.00,VWS V14.01,2013-08-20 18:15:00,
2013-08-20 14:16:00,83.6,63.6,30.08,WNW,293,3.0,7.0,51,0.00,,,0.00,0.00,VWS V14.01,2013-08-20 18:16:00,
2013-08-20 14:19:00,83.5,64.0,30.08,WNW,293,1.0,1.0,52,0.00,,,0.00,0.00,VWS V14.01,2013-08-20 18:19:00,
2013-08-20 14:20:00,83.6,63.6,30.08,WNW,293,3.0,3.0,51,0.00,,,0.00,0.00,VWS V14.01,2013-08-20 18:20:00,
2013-08-20 14:21:00,83.6,63.6,30.08,WNW,293,0.0,1.0,51,0.00,,,0.00,0.00,VWS V14.01,2013-08-20 18:21:00,
2013-08-20 14:24:00,83.9,63.8,30.08,WNW,293,2.0,4.0,51,0.00,,,0.00,0.00,VWS V14.01,2013-08-20 18:24:00,
2013-08-20 14:25:00,84.0,64.5,30.08,WNW,293,0.0,1.0,52,0.00,,,0.00,0.00,VWS V14.01,2013-08-20 18:25:00,
2013-08-20 14:26:00,84.2,64.7,30.08,WNW,293,0.0,2.0,52,0.00,,,0.00,0.00,VWS V14.01,2013-08-20 18:26:00,
2013-08-20 14:29:00,84.3,64.2,30.08,WNW,293,1.0,2.0,51,0.00,,,0.00,0.00,VWS V14.01,2013-08-20 18:29:00,
2013-08-20 14:30:00,84.4,64.3,30.08,WNW,293,0.0,2.0,51,0.00,,,0.00,0.00,VWS V14.01,2013-08-20 18:30:00,
2013-08-20 14:31:00,84.5,63.8,30.08,WNW,293,0.0,4.0,50,0.00,,,0.00,0.00,VWS V14.01,2013-08-20 18:31:00,
2013-08-20 14:34:00,84.8,64.7,30.08,WNW,293,2.0,3.0,51,0.00,,,0.00,0.00,VWS V14.01,2013-08-20 18:34:00,
2013-08-20 14:35:00,84.9,64.8,30.08,WNW,293,6.0,6.0,51,0.00,,,0.00,0.00,VWS V14.01,2013-08-20 18:35:00,
2013-08-20 14:36:00,84.9,64.2,30.08,WNW,293,6.0,6.0,50,0.00,,,0.00,0.00,VWS V14.01,2013-08-20 18:36:00,
2013-08-20 14:39:00,84.6,64.5,30.08,WNW,293,4.0,4.0,51,0.00,,,0.00,0.00,VWS V14.01,2013-08-20 18:39:00,
2013-08-20 14:40:00,84.5,64.4,30.08,WNW,293,1.0,6.0,51,0.00,,,0.00,0.00,VWS V14.01,2013-08-20 18:40:00,
2013-08-20 14:41:00,84.4,64.9,30.08,WNW,293,3.0,3.0,52,0.00,,,0.00,0.00,VWS V14.01,2013-08-20 18:41:00,
2013-08-20 14:42:00,84.2,64.1,30.08,WNW,293,6.0,7.0,51,0.00,,,0.00,0.00,VWS V14.01,2013-08-20 18:42:00,
2013-08-20 14:44:00,83.9,63.8,30.08,WNW,293,1.0,3.0,51,0.00,,,0.00,0.00,VWS V14.01,2013-08-20 18:44:00,
2013-08-20 14:45:00,83.8,64.9,30.08,WNW,293,2.0,7.0,53,0.00,,,0.00,0.00,VWS V14.01,2013-08-20 18:45:00,
2013-08-20 14:46:00,83.8,63.8,30.08,WNW,293,4.0,4.0,51,0.00,,,0.00,0.00,VWS V14.01,2013-08-20 18:46:00,
2013-08-20 14:47:00,83.8,63.8,30.08,WNW,293,2.0,5.0,51,0.00,,,0.00,0.00,VWS V14.01,2013-08-20 18:47:00,
2013-08-20 14:49:00,83.7,63.7,30.08,WNW,293,2.0,2.0,51,0.00,,,0.00,0.00,VWS V14.01,2013-08-20 18:49:00,
2013-08-20 14:50:00,83.7,63.1,30.08,WNW,293,0.0,4.0,50,0.00,,,0.00,0.00,VWS V14.01,2013-08-20 18:50:00,
2013-08-20 14:51:00,83.7,63.1,30.08,WNW,293,2.0,2.0,50,0.00,,,0.00,0.00,VWS V14.01,2013-08-20 18:51:00,
2013-08-20 14:52:00,83.7,63.7,30.08,WNW,293,0.0,1.0,51,0.00,,,0.00,0.00,VWS V14.01,2013-08-20 18:52:00,
2013-08-20 14:54:00,83.9,63.8,30.08,WNW,293,2.0,3.0,51,0.00,,,0.00,0.00,VWS V14.01,2013-08-20 18:54:00,
2013-08-20 14:55:00,84.0,63.4,30.08,WNW,293,2.0,4.0,50,0.00,,,0.00,0.00,VWS V14.01,2013-08-20 18:55:00,
2013-08-20 14:56:00,84.1,63.5,30.08,WNW,293,0.0,3.0,50,0.00,,,0.00,0.00,VWS V14.01,2013-08-20 18:56:00,
2013-08-20 14:57:00,84.0,63.9,30.08,WNW,293,0.0,1.0,51,0.00,,,0.00,0.00,VWS V14.01,2013-08-20 18:57:00,
2013-08-20 14:59:00,84.1,63.5,30.08,WNW,293,3.0,4.0,50,0.00,,,0.00,0.00,VWS V14.01,2013-08-20 18:59:00,
2013-08-20 15:00:00,84.2,64.1,30.08,WNW,293,4.0,4.0,51,0.00,,,0.00,0.00,VWS V14.01,2013-08-20 19:00:00,
2013-08-20 15:01:00,84.2,64.1,30.08,WNW,293,3.0,4.0,51,0.00,,,0.00,0.00,VWS V14.01,2013-08-20 19:01:00,
2013-08-20 15:02:00,84.1,64.0,30.08,WNW,293,0.0,1.0,51,0.00,,,0.00,0.00,VWS V14.01,2013-08-20 19:02:00,
2013-08-20 15:04:00,84.2,64.7,30.08,WNW,293,4.0,4.0,52,0.00,,,0.00,0.00,VWS V14.01,2013-08-20 19:04:00,
2013-08-20 15:05:00,84.2,63.6,30.07,WNW,293,5.0,7.0,50,0.00,,,0.00,0.00,VWS V14.01,2013-08-20 19:05:00,
2013-08-20 15:06:00,84.1,63.5,30.07,WNW,293,3.0,3.0,50,0.00,,,0.00,0.00,VWS V14.01,2013-08-20 19:06:00,
2013-08-20 15:07:00,84.0,63.4,30.07,WNW,293,0.0,3.0,50,0.00,,,0.00,0.00,VWS V14.01,2013-08-20 19:07:00,
2013-08-20 15:09:00,83.9,63.3,30.07,WNW,293,0.0,4.0,50,0.00,,,0.00,0.00,VWS V14.01,2013-08-20 19:09:00,
2013-08-20 15:10:00,83.8,63.8,30.07,WNW,293,3.0,5.0,51,0.00,,,0.00,0.00,VWS V14.01,2013-08-20 19:10:00,
2013-08-20 15:11:00,83.8,63.8,30.07,WNW,293,3.0,4.0,51,0.00,,,0.00,0.00,VWS V14.01,2013-08-20 19:11:00,
2013-08-20 15:12:00,83.7,64.2,30.07,WNW,293,0.0,2.0,52,0.00,,,0.00,0.00,VWS V14.01,2013-08-20 19:12:00,
2013-08-20 15:14:00,83.7,64.2,30.07,WNW,293,0.0,1.0,52,0.00,,,0.00,0.00,VWS V14.01,2013-08-20 19:14:00,
2013-08-20 15:15:00,83.8,64.3,30.07,WNW,293,4.0,5.0,52,0.00,,,0.00,0.00,VWS V14.01,2013-08-20 19:15:00,
2013-08-20 15:16:00,83.8,64.3,30.07,WNW,293,4.0,5.0,52,0.00,,,0.00,0.00,VWS V14.01,2013-08-20 19:16:00,
2013-08-20 15:17:00,83.8,64.9,30.07,WNW,293,1.0,4.0,53,0.00,,,0.00,0.00,VWS V14.01,2013-08-20 19:17:00,
2013-08-20 15:19:00,84.0,65.6,30.07,WNW,293,1.0,3.0,54,0.00,,,0.00,0.00,VWS V14.01,2013-08-20 19:19:00,
2013-08-20 15:20:00,84.1,64.0,30.07,WNW,293,2.0,2.0,51,0.00,,,0.00,0.00,VWS V14.01,2013-08-20 19:20:00,
2013-08-20 15:21:00,84.1,64.0,30.07,WNW,293,4.0,5.0,51,0.00,,,0.00,0.00,VWS V14.01,2013-08-20 19:21:00,
2013-08-20 15:22:00,84.0,64.5,30.07,WNW,293,0.0,2.0,52,0.00,,,0.00,0.00,VWS V14.01,2013-08-20 19:22:00,
2013-08-20 15:24:00,84.1,64.6,30.07,WNW,293,0.0,4.0,52,0.00,,,0.00,0.00,VWS V14.01,2013-08-20 19:24:00,
2013-08-20 15:26:00,84.2,64.1,30.07,WNW,293,1.0,2.0,51,0.00,,,0.00,0.00,VWS V14.01,2013-08-20 19:26:00,
2013-08-20 15:27:00,84.2,64.1,30.07,WNW,293,4.0,4.0,51,0.00,,,0.00,0.00,VWS V14.01,2013-08-20 19:27:00,
2013-08-20 15:29:00,84.3,63.7,30.07,WNW,293,2.0,6.0,50,0.00,,,0.00,0.00,VWS V14.01,2013-08-20 19:29:00,
2013-08-20 15:31:00,84.3,63.7,30.07,WNW,293,1.0,1.0,50,0.00,,,0.00,0.00,VWS V14.01,2013-08-20 19:31:00,
2013-08-20 15:32:00,84.3,64.2,30.07,WNW,293,5.0,5.0,51,0.00,,,0.00,0.00,VWS V14.01,2013-08-20 19:32:00,
2013-08-20 15:34:00,84.1,64.6,30.07,WSW,237,5.0,5.0,52,0.00,,,0.00,0.00,VWS V14.01,2013-08-20 19:34:00,
2013-08-20 15:36:00,84.0,63.9,30.06,WSW,237,2.0,3.0,51,0.00,,,0.00,0.00,VWS V14.01,2013-08-20 19:36:00,
2013-08-20 15:37:00,83.8,63.8,30.07,WSW,237,2.0,4.0,51,0.00,,,0.00,0.00,VWS V14.01,2013-08-20 19:37:00,
2013-08-20 15:39:00,83.7,63.1,30.07,WSW,237,4.0,4.0,50,0.00,,,0.00,0.00,VWS V14.01,2013-08-20 19:39:00,
2013-08-20 15:41:00,83.6,63.0,30.06,WSW,237,0.0,1.0,50,0.00,,,0.00,0.00,VWS V14.01,2013-08-20 19:41:00,
2013-08-20 15:42:00,83.7,63.7,30.06,WSW,237,1.0,3.0,51,0.00,,,0.00,0.00,VWS V14.01,2013-08-20 19:42:00,
2013-08-20 15:44:00,83.8,63.2,30.06,WSW,237,0.0,0.0,50,0.00,,,0.00,0.00,VWS V14.01,2013-08-20 19:44:00,
2013-08-20 15:46:00,83.9,63.3,30.06,WSW,237,1.0,2.0,50,0.00,,,0.00,0.00,VWS V14.01,2013-08-20 19:46:00,
2013-08-20 15:47:00,84.1,64.0,30.06,WSW,237,1.0,1.0,51,0.00,,,0.00,0.00,VWS V14.01,2013-08-20 19:47:00,
2013-08-20 15:49:00,84.3,64.2,30.06,WSW,237,0.0,0.0,51,0.00,,,0.00,0.00,VWS V14.01,2013-08-20 19:49:00,
2013-08-20 15:51:00,84.4,64.3,30.06,WSW,237,0.0,1.0,51,0.00,,,0.00,0.00,VWS V14.01,2013-08-20 19:51:00,
2013-08-20 15:52:00,84.5,63.8,30.06,WSW,237,2.0,3.0,50,0.00,,,0.00,0.00,VWS V14.01,2013-08-20 19:52:00,
2013-08-20 15:53:00,84.5,64.4,30.06,WSW,239,6.0,6.0,51,0.00,,,0.00,0.00,VWS V14.01,2013-08-20 19:53:00,
2013-08-20 15:55:00,84.5,64.4,30.06,WSW,243,2.0,2.0,51,0.00,,,0.00,0.00,VWS V14.01,2013-08-20 19:55:00,
2013-08-20 15:56:00,84.4,64.3,30.06,WSW,244,3.0,4.0,51,0.00,,,0.00,0.00,VWS V14.01,2013-08-20 19:56:00,
2013-08-20 15:57:00,84.4,64.3,30.06,WSW,244,1.0,2.0,51,0.00,,,0.00,0.00,VWS V14.01,2013-08-20 19:57:00,
2013-08-20 15:58:00,84.4,63.8,30.06,WSW,244,0.0,1.0,50,0.00,,,0.00,0.00,VWS V14.01,2013-08-20 19:58:00,
2013-08-20 16:00:00,84.3,64.2,30.06,WSW,244,0.0,3.0,51,0.00,,,0.00,0.00,VWS V14.01,2013-08-20 20:00:00,
2013-08-20 16:01:00,84.3,64.2,30.05,WSW,244,0.0,0.0,51,0.00,,,0.00,0.00,VWS V14.01,2013-08-20 20:01:00,
2013-08-20 16:02:00,84.2,63.6,30.06,WSW,244,2.0,4.0,50,0.00,,,0.00,0.00,VWS V14.01,2013-08-20 20:02:00,
2013-08-20 16:03:00,84.2,64.1,30.06,WSW,244,2.0,2.0,51,0.00,,,0.00,0.00,VWS V14.01,2013-08-20 20:03:00,
2013-08-20 16:05:00,84.4,63.8,30.05,WSW,244,1.0,1.0,50,0.00,,,0.00,0.00,VWS V14.01,2013-08-20 20:05:00,
2013-08-20 16:06:00,84.5,63.8,30.05,WSW,244,1.0,1.0,50,0.00,,,0.00,0.00,VWS V14.01,2013-08-20 20:06:00,
2013-08-20 16:07:00,84.6,63.9,30.05,WSW,244,3.0,3.0,50,0.00,,,0.00,0.00,VWS V14.01,2013-08-20 20:07:00,
2013-08-20 16:08:00,84.7,64.0,30.05,WSW,244,1.0,3.0,50,0.00,,,0.00,0.00,VWS V14.01,2013-08-20 20:08:00,
2013-08-20 16:10:00,84.8,64.1,30.05,WSW,247,6.0,6.0,50,0.00,,,0.00,0.00,VWS V14.01,2013-08-20 20:10:00,
2013-08-20 16:11:00,84.7,63.5,30.05,WSW,247,2.0,3.0,49,0.00,,,0.00,0.00,VWS V14.01,2013-08-20 20:11:00,
2013-08-20 16:12:00,84.7,64.6,30.05,WSW,247,2.0,2.0,51,0.00,,,0.00,0.00,VWS V14.01,2013-08-20 20:12:00,
2013-08-20 16:13:00,84.8,64.1,30.05,WSW,247,2.0,4.0,50,0.00,,,0.00,0.00,VWS V14.01,2013-08-20 20:13:00,
2013-08-20 16:15:00,84.8,63.5,30.05,WSW,247,2.0,2.0,49,0.00,,,0.00,0.00,VWS V14.01,2013-08-20 20:15:00,
2013-08-20 16:16:00,84.9,64.2,30.05,WSW,247,2.0,3.0,50,0.00,,,0.00,0.00,VWS V14.01,2013-08-20 20:16:00,
2013-08-20 16:17:00,84.9,64.2,30.05,WSW,258,0.0,8.0,50,0.00,,,0.00,0.00,VWS V14.01,2013-08-20 20:17:00,
2013-08-20 16:18:00,84.9,64.2,30.05,WSW,258,5.0,7.0,50,0.00,,,0.00,0.00,VWS V14.01,2013-08-20 20:18:00,
2013-08-20 16:20:00,84.6,63.9,30.05,WSW,258,2.0,3.0,50,0.00,,,0.00,0.00,VWS V14.01,2013-08-20 20:20:00,
2013-08-20 16:21:00,84.5,64.4,30.05,WSW,258,0.0,1.0,51,0.00,,,0.00,0.00,VWS V14.01,2013-08-20 20:21:00,
2013-08-20 16:22:00,84.5,65.0,30.05,WSW,258,0.0,1.0,52,0.00,,,0.00,0.00,VWS V14.01,2013-08-20 20:22:00,
2013-08-20 16:23:00,84.5,65.0,30.05,WSW,258,0.0,2.0,52,0.00,,,0.00,0.00,VWS V14.01,2013-08-20 20:23:00,
2013-08-20 16:25:00,84.6,64.5,30.05,WSW,258,1.0,2.0,51,0.00,,,0.00,0.00,VWS V14.01,2013-08-20 20:25:00,
2013-08-20 16:26:00,84.7,65.1,30.05,WSW,258,2.0,3.0,52,0.00,,,0.00,0.00,VWS V14.01,2013-08-20 20:26:00,
2013-08-20 16:27:00,84.7,64.6,30.05,WSW,258,0.0,1.0,51,0.00,,,0.00,0.00,VWS V14.01,2013-08-20 20:27:00,
2013-08-20 16:28:00,84.7,64.6,30.05,WSW,258,0.0,1.0,51,0.00,,,0.00,0.00,VWS V14.01,2013-08-20 20:28:00,
2013-08-20 16:30:00,84.8,64.1,30.05,WSW,258,3.0,5.0,50,0.00,,,0.00,0.00,VWS V14.01,2013-08-20 20:30:00,
2013-08-20 16:31:00,84.7,64.6,30.05,WSW,258,3.0,7.0,51,0.00,,,0.00,0.00,VWS V14.01,2013-08-20 20:31:00,
2013-08-20 16:32:00,84.7,63.5,30.05,WSW,258,3.0,4.0,49,0.00,,,0.00,0.00,VWS V14.01,2013-08-20 20:32:00,
2013-08-20 16:33:00,84.7,63.5,30.05,WSW,258,1.0,4.0,49,0.00,,,0.00,0.00,VWS V14.01,2013-08-20 20:33:00,
2013-08-20 16:35:00,84.5,63.8,30.05,WSW,258,0.0,0.0,50,0.00,,,0.00,0.00,VWS V14.01,2013-08-20 20:35:00,
2013-08-20 16:36:00,84.6,65.1,30.05,WSW,258,2.0,3.0,52,0.00,,,0.00,0.00,VWS V14.01,2013-08-20 20:36:00,
2013-08-20 16:37:00,84.6,65.1,30.05,WSW,258,1.0,2.0,52,0.00,,,0.00,0.00,VWS V14.01,2013-08-20 20:37:00,
2013-08-20 16:38:00,84.8,65.2,30.05,WSW,258,1.0,2.0,52,0.00,,,0.00,0.00,VWS V14.01,2013-08-20 20:38:00,
2013-08-20 16:40:00,85.1,65.0,30.05,WSW,244,3.0,5.0,51,0.00,,,0.00,0.00,VWS V14.01,2013-08-20 20:40:00,
2013-08-20 16:41:00,85.2,64.5,30.05,WSW,244,0.0,6.0,50,0.00,,,0.00,0.00,VWS V14.01,2013-08-20 20:41:00,
2013-08-20 16:42:00,85.2,64.5,30.05,WSW,244,0.0,0.0,50,0.00,,,0.00,0.00,VWS V14.01,2013-08-20 20:42:00,
2013-08-20 16:43:00,85.2,65.1,30.05,WSW,244,0.0,0.0,51,0.00,,,0.00,0.00,VWS V14.01,2013-08-20 20:43:00,
2013-08-20 16:45:00,85.2,65.1,30.05,WSW,244,1.0,3.0,51,0.00,,,0.00,0.00,VWS V14.01,2013-08-20 20:45:00,
2013-08-20 16:46:00,85.3,65.1,30.05,WSW,244,1.0,1.0,51,0.00,,,0.00,0.00,VWS V14.01,2013-08-20 20:46:00,
2013-08-20 16:47:00,85.3,65.1,30.05,WSW,244,1.0,2.0,51,0.00,,,0.00,0.00,VWS V14.01,2013-08-20 20:47:00,
2013-08-20 16:48:00,85.3,65.1,30.05,WSW,244,4.0,4.0,51,0.00,,,0.00,0.00,VWS V14.01,2013-08-20 20:48:00,
2013-08-20 16:50:00,85.0,65.4,30.05,WSW,244,1.0,4.0,52,0.00,,,0.00,0.00,VWS V14.01,2013-08-20 20:50:00,
2013-08-20 16:51:00,84.9,65.3,30.05,WSW,244,2.0,4.0,52,0.00,,,0.00,0.00,VWS V14.01,2013-08-20 20:51:00,
2013-08-20 16:52:00,84.9,64.8,30.05,WSW,244,3.0,3.0,51,0.00,,,0.00,0.00,VWS V14.01,2013-08-20 20:52:00,
2013-08-20 16:53:00,84.8,64.7,30.05,WSW,244,0.0,0.0,51,0.00,,,0.00,0.00,VWS V14.01,2013-08-20 20:53:00,
2013-08-20 16:56:00,84.9,64.8,30.05,WSW,244,0.0,0.0,51,0.00,,,0.00,0.00,VWS V14.01,2013-08-20 20:56:00,
2013-08-20 16:57:00,84.9,64.8,30.05,WSW,244,2.0,2.0,51,0.00,,,0.00,0.00,VWS V14.01,2013-08-20 20:57:00,
2013-08-20 16:58:00,84.9,64.8,30.05,WSW,244,0.0,1.0,51,0.00,,,0.00,0.00,VWS V14.01,2013-08-20 20:58:00,
2013-08-20 17:01:00,85.0,64.3,30.05,WSW,244,3.0,3.0,50,0.00,,,0.00,0.00,VWS V14.01,2013-08-20 21:01:00,
2013-08-20 17:02:00,85.0,64.3,30.05,WSW,244,0.0,1.0,50,0.00,,,0.00,0.00,VWS V14.01,2013-08-20 21:02:00,
2013-08-20 17:03:00,84.9,64.2,30.05,WSW,244,1.0,1.0,50,0.00,,,0.00,0.00,VWS V14.01,2013-08-20 21:03:00,
2013-08-20 17:06:00,85.0,65.4,30.05,WSW,244,1.0,1.0,52,0.00,,,0.00,0.00,VWS V14.01,2013-08-20 21:06:00,
2013-08-20 17:07:00,85.0,65.4,30.05,WSW,244,0.0,2.0,52,0.00,,,0.00,0.00,VWS V14.01,2013-08-20 21:07:00,
2013-08-20 17:08:00,85.0,64.9,30.05,WSW,244,3.0,3.0,51,0.00,,,0.00,0.00,VWS V14.01,2013-08-20 21:08:00,
2013-08-20 17:12:00,85.2,63.9,30.05,WSW,251,1.0,3.0,49,0.00,,,0.00,0.00,VWS V14.01,2013-08-20 21:12:00,
2013-08-20 17:13:00,85.2,64.5,30.05,WSW,251,3.0,3.0,50,0.00,,,0.00,0.00,VWS V14.01,2013-08-20 21:13:00,
2013-08-20 17:17:00,85.3,64.0,30.05,WSW,251,3.0,3.0,49,0.00,,,0.00,0.00,VWS V14.01,2013-08-20 21:17:00,
2013-08-20 17:18:00,85.3,64.0,30.05,WSW,251,3.0,4.0,49,0.00,,,0.00,0.00,VWS V14.01,2013-08-20 21:18:00,
2013-08-20 17:22:00,85.2,63.3,30.05,WSW,251,4.0,5.0,48,0.00,,,0.00,0.00,VWS V14.01,2013-08-20 21:22:00,
2013-08-20 17:23:00,85.2,63.9,30.05,WSW,251,3.0,5.0,49,0.00,,,0.00,0.00,VWS V14.01,2013-08-20 21:23:00,
2013-08-20 17:27:00,85.0,63.7,30.05,WSW,250,0.0,3.0,49,0.00,,,0.00,0.00,VWS V14.01,2013-08-20 21:27:00,
2013-08-20 17:28:00,84.9,63.6,30.05,WSW,250,3.0,3.0,49,0.00,,,0.00,0.00,VWS V14.01,2013-08-20 21:28:00,
2013-08-20 17:29:00,84.9,63.6,30.05,WSW,250,1.0,3.0,49,0.00,,,0.00,0.00,VWS V14.01,2013-08-20 21:29:00,
2013-08-20 17:32:00,84.9,63.6,30.05,WSW,250,0.0,0.0,49,0.00,,,0.00,0.00,VWS V14.01,2013-08-20 21:32:00,
2013-08-20 17:33:00,85.0,63.7,30.05,WSW,250,0.0,1.0,49,0.00,,,0.00,0.00,VWS V14.01,2013-08-20 21:33:00,
2013-08-20 17:34:00,85.0,64.3,30.05,WSW,250,0.0,0.0,50,0.00,,,0.00,0.00,VWS V14.01,2013-08-20 21:34:00,
2013-08-20 17:37:00,85.2,63.9,30.05,WSW,250,1.0,5.0,49,0.00,,,0.00,0.00,VWS V14.01,2013-08-20 21:37:00,
2013-08-20 17:38:00,85.2,63.9,30.05,WSW,250,0.0,0.0,49,0.00,,,0.00,0.00,VWS V14.01,2013-08-20 21:38:00,
2013-08-20 17:39:00,85.3,64.6,30.05,WSW,250,1.0,2.0,50,0.00,,,0.00,0.00,VWS V14.01,2013-08-20 21:39:00,
2013-08-20 17:42:00,85.1,63.8,30.05,West,265,1.0,8.0,49,0.00,,,0.00,0.00,VWS V14.01,2013-08-20 21:42:00,
2013-08-20 17:43:00,85.1,63.8,30.05,West,265,1.0,1.0,49,0.00,,,0.00,0.00,VWS V14.01,2013-08-20 21:43:00,
2013-08-20 17:44:00,85.0,64.3,30.05,West,265,0.0,1.0,50,0.00,,,0.00,0.00,VWS V14.01,2013-08-20 21:44:00,
2013-08-20 17:47:00,84.8,64.1,30.05,West,265,0.0,3.0,50,0.00,,,0.00,0.00,VWS V14.01,2013-08-20 21:47:00,
2013-08-20 17:48:00,84.8,64.1,30.05,West,265,0.0,0.0,50,0.00,,,0.00,0.00,VWS V14.01,2013-08-20 21:48:00,
2013-08-20 17:49:00,84.8,64.1,30.05,West,265,0.0,1.0,50,0.00,,,0.00,0.00,VWS V14.01,2013-08-20 21:49:00,
2013-08-20 17:52:00,84.9,64.2,30.05,West,265,1.0,1.0,50,0.00,,,0.00,0.00,VWS V14.01,2013-08-20 21:52:00,
2013-08-20 17:53:00,84.9,64.2,30.05,West,265,2.0,2.0,50,0.00,,,0.00,0.00,VWS V14.01,2013-08-20 21:53:00,
2013-08-20 17:54:00,84.9,64.2,30.05,West,265,2.0,5.0,50,0.00,,,0.00,0.00,VWS V14.01,2013-08-20 21:54:00,
2013-08-20 17:57:00,84.7,64.0,30.05,West,265,0.0,2.0,50,0.00,,,0.00,0.00,VWS V14.01,2013-08-20 21:57:00,
2013-08-20 17:58:00,84.7,64.6,30.05,West,265,0.0,0.0,51,0.00,,,0.00,0.00,VWS V14.01,2013-08-20 21:58:00,
2013-08-20 17:59:00,84.7,65.1,30.05,West,265,2.0,3.0,52,0.00,,,0.00,0.00,VWS V14.01,2013-08-20 21:59:00,
2013-08-20 18:02:00,84.9,65.3,30.05,West,265,2.0,4.0,52,0.00,,,0.00,0.00,VWS V14.01,2013-08-20 22:02:00,
2013-08-20 18:03:00,84.9,64.8,30.05,West,265,2.0,2.0,51,0.00,,,0.00,0.00,VWS V14.01,2013-08-20 22:03:00,
2013-08-20 18:04:00,84.9,64.2,30.04,West,265,4.0,4.0,50,0.00,,,0.00,0.00,VWS V14.01,2013-08-20 22:04:00,
2013-08-20 18:07:00,84.7,64.6,30.04,West,265,1.0,5.0,51,0.00,,,0.00,0.00,VWS V14.01,2013-08-20 22:07:00,
2013-08-20 18:08:00,84.6,64.5,30.04,West,265,0.0,1.0,51,0.00,,,0.00,0.00,VWS V14.01,2013-08-20 22:08:00,
2013-08-20 18:09:00,84.5,64.4,30.04,West,265,2.0,4.0,51,0.00,,,0.00,0.00,VWS V14.01,2013-08-20 22:09:00,
2013-08-20 18:12:00,84.4,64.9,30.04,West,265,1.0,1.0,52,0.00,,,0.00,0.00,VWS V14.01,2013-08-20 22:12:00,
2013-08-20 18:13:00,84.4,64.9,30.04,West,265,1.0,1.0,52,0.00,,,0.00,0.00,VWS V14.01,2013-08-20 22:13:00,
2013-08-20 18:14:00,84.4,64.3,30.04,West,265,0.0,0.0,51,0.00,,,0.00,0.00,VWS V14.01,2013-08-20 22:14:00,
2013-08-20 18:18:00,84.4,64.9,30.04,West,265,0.0,1.0,52,0.00,,,0.00,0.00,VWS V14.01,2013-08-20 22:18:00,
2013-08-20 18:19:00,84.4,64.3,30.04,West,265,1.0,1.0,51,0.00,,,0.00,0.00,VWS V14.01,2013-08-20 22:19:00,
2013-08-20 18:23:00,84.5,65.5,30.04,WSW,252,2.0,3.0,53,0.00,,,0.00,0.00,VWS V14.01,2013-08-20 22:23:00,
2013-08-20 18:24:00,84.6,65.6,30.04,WSW,252,0.0,0.0,53,0.00,,,0.00,0.00,VWS V14.01,2013-08-20 22:24:00,
2013-08-20 18:28:00,84.6,65.1,30.04,WSW,252,0.0,0.0,52,0.00,,,0.00,0.00,VWS V14.01,2013-08-20 22:28:00,
2013-08-20 18:29:00,84.6,65.6,30.04,WSW,252,0.0,0.0,53,0.00,,,0.00,0.00,VWS V14.01,2013-08-20 22:29:00,
2013-08-20 18:33:00,84.5,65.0,30.04,WSW,252,1.0,1.0,52,0.00,,,0.00,0.00,VWS V14.01,2013-08-20 22:33:00,
2013-08-20 18:34:00,84.4,64.9,30.04,WSW,252,0.0,1.0,52,0.00,,,0.00,0.00,VWS V14.01,2013-08-20 22:34:00,
2013-08-20 18:35:00,84.4,64.9,30.04,WSW,252,1.0,1.0,52,0.00,,,0.00,0.00,VWS V14.01,2013-08-20 22:35:00,
2013-08-20 18:38:00,84.2,65.2,30.04,WSW,252,0.0,0.0,53,0.00,,,0.00,0.00,VWS V14.01,2013-08-20 22:38:00,
2013-08-20 18:39:00,84.2,64.7,30.04,WSW,252,0.0,3.0,52,0.00,,,0.00,0.00,VWS V14.01,2013-08-20 22:39:00,
2013-08-20 18:40:00,84.2,64.1,30.04,WSW,252,0.0,1.0,51,0.00,,,0.00,0.00,VWS V14.01,2013-08-20 22:40:00,
2013-08-20 18:43:00,84.1,64.0,30.04,WSW,252,0.0,0.0,51,0.00,,,0.00,0.00,VWS V14.01,2013-08-20 22:43:00,
2013-08-20 18:44:00,84.1,64.6,30.04,WSW,252,0.0,0.0,52,0.00,,,0.00,0.00,VWS V14.01,2013-08-20 22:44:00,
2013-08-20 18:45:00,84.1,64.0,30.04,WSW,252,0.0,0.0,51,0.00,,,0.00,0.00,VWS V14.01,2013-08-20 22:45:00,
2013-08-20 18:48:00,84.0,64.5,30.04,WSW,252,2.0,2.0,52,0.00,,,0.00,0.00,VWS V14.01,2013-08-20 22:48:00,
2013-08-20 18:49:00,84.0,65.1,30.04,WSW,252,4.0,4.0,53,0.00,,,0.00,0.00,VWS V14.01,2013-08-20 22:49:00,
2013-08-20 18:50:00,84.0,65.1,30.04,WSW,252,2.0,3.0,53,0.00,,,0.00,0.00,VWS V14.01,2013-08-20 22:50:00,
2013-08-20 18:53:00,83.8,64.3,30.04,WSW,252,1.0,1.0,52,0.00,,,0.00,0.00,VWS V14.01,2013-08-20 22:53:00,
2013-08-20 18:54:00,83.7,64.8,30.04,WSW,252,0.0,1.0,53,0.00,,,0.00,0.00,VWS V14.01,2013-08-20 22:54:00,
2013-08-20 18:55:00,83.7,64.8,30.04,WSW,252,0.0,0.0,53,0.00,,,0.00,0.00,VWS V14.01,2013-08-20 22:55:00,
2013-08-20 18:58:00,83.6,64.7,30.04,WSW,252,3.0,3.0,53,0.00,,,0.00,0.00,VWS V14.01,2013-08-20 22:58:00,
2013-08-20 18:59:00,83.6,64.7,30.04,WSW,252,1.0,5.0,53,0.00,,,0.00,0.00,VWS V14.01,2013-08-20 22:59:00,
2013-08-20 19:00:00,83.6,65.2,30.04,WSW,252,0.0,0.0,54,0.00,,,0.00,0.00,VWS V14.01,2013-08-20 23:00:00,
2013-08-20 19:03:00,83.5,65.1,30.04,WSW,252,1.0,2.0,54,0.00,,,0.00,0.00,VWS V14.01,2013-08-20 23:03:00,
2013-08-20 19:04:00,83.4,64.5,30.04,WSW,252,0.0,2.0,53,0.00,,,0.00,0.00,VWS V14.01,2013-08-20 23:04:00,
2013-08-20 19:05:00,83.4,64.5,30.04,WSW,252,0.0,1.0,53,0.00,,,0.00,0.00,VWS V14.01,2013-08-20 23:05:00,
2013-08-20 19:08:00,83.3,64.9,30.04,WSW,252,0.0,0.0,54,0.00,,,0.00,0.00,VWS V14.01,2013-08-20 23:08:00,
2013-08-20 19:09:00,83.3,64.9,30.04,WSW,252,1.0,1.0,54,0.00,,,0.00,0.00,VWS V14.01,2013-08-20 23:09:00,
2013-08-20 19:10:00,83.3,64.9,30.04,WSW,252,0.0,1.0,54,0.00,,,0.00,0.00,VWS V14.01,2013-08-20 23:10:00,
2013-08-20 19:13:00,83.2,64.8,30.04,WSW,252,0.0,0.0,54,0.00,,,0.00,0.00,VWS V14.01,2013-08-20 23:13:00,
2013-08-20 19:14:00,83.2,65.4,30.04,WSW,252,0.0,0.0,55,0.00,,,0.00,0.00,VWS V14.01,2013-08-20 23:14:00,
2013-08-20 19:15:00,83.2,64.8,30.04,WSW,252,0.0,1.0,54,0.00,,,0.00,0.00,VWS V14.01,2013-08-20 23:15:00,
2013-08-20 19:18:00,83.1,65.3,30.04,WSW,252,0.0,1.0,55,0.00,,,0.00,0.00,VWS V14.01,2013-08-20 23:18:00,
2013-08-20 19:19:00,83.0,64.7,30.04,WSW,252,0.0,0.0,54,0.00,,,0.00,0.00,VWS V14.01,2013-08-20 23:19:00,
2013-08-20 19:20:00,83.0,64.7,30.04,WSW,252,0.0,0.0,54,0.00,,,0.00,0.00,VWS V14.01,2013-08-20 23:20:00,
2013-08-20 19:23:00,83.0,65.2,30.04,WSW,252,0.0,1.0,55,0.00,,,0.00,0.00,VWS V14.01,2013-08-20 23:23:00,
2013-08-20 19:24:00,82.9,64.6,30.04,WSW,252,0.0,0.0,54,0.00,,,0.00,0.00,VWS V14.01,2013-08-20 23:24:00,
2013-08-20 19:25:00,82.9,65.1,30.04,WSW,252,0.0,0.0,55,0.00,,,0.00,0.00,VWS V14.01,2013-08-20 23:25:00,
2013-08-20 19:28:00,82.9,65.1,30.04,WSW,252,0.0,1.0,55,0.00,,,0.00,0.00,VWS V14.01,2013-08-20 23:28:00,
2013-08-20 19:29:00,82.9,65.1,30.04,WSW,252,0.0,0.0,55,0.00,,,0.00,0.00,VWS V14.01,2013-08-20 23:29:00,
2013-08-20 19:30:00,82.9,65.1,30.04,WSW,252,0.0,0.0,55,0.00,,,0.00,0.00,VWS V14.01,2013-08-20 23:30:00,
2013-08-20 19:33:00,82.9,65.6,30.04,WSW,252,0.0,0.0,56,0.00,,,0.00,0.00,VWS V14.01,2013-08-20 23:33:00,
2013-08-20 19:34:00,82.9,65.6,30.04,WSW,252,0.0,0.0,56,0.00,,,0.00,0.00,VWS V14.01,2013-08-20 23:34:00,
2013-08-20 19:35:00,82.8,65.5,30.04,WSW,252,0.0,1.0,56,0.00,,,0.00,0.00,VWS V14.01,2013-08-20 23:35:00,
2013-08-20 19:38:00,82.8,65.5,30.04,WSW,252,1.0,1.0,56,0.00,,,0.00,0.00,VWS V14.01,2013-08-20 23:38:00,
2013-08-20 19:39:00,82.8,65.5,30.04,WSW,252,0.0,0.0,56,0.00,,,0.00,0.00,VWS V14.01,2013-08-20 23:39:00,
2013-08-20 19:40:00,82.8,66.0,30.04,WSW,252,0.0,1.0,57,0.00,,,0.00,0.00,VWS V14.01,2013-08-20 23:40:00,
2013-08-20 19:43:00,82.7,66.4,30.04,WSW,252,0.0,0.0,58,0.00,,,0.00,0.00,VWS V14.01,2013-08-20 23:43:00,
2013-08-20 19:44:00,82.7,65.9,30.04,WSW,252,0.0,0.0,57,0.00,,,0.00,0.00,VWS V14.01,2013-08-20 23:44:00,
2013-08-20 19:45:00,82.8,66.5,30.04,WSW,252,0.0,0.0,58,0.00,,,0.00,0.00,VWS V14.01,2013-08-20 23:45:00,
2013-08-20 19:48:00,82.8,66.0,30.04,WSW,252,0.0,0.0,57,0.00,,,0.00,0.00,VWS V14.01,2013-08-20 23:48:00,
2013-08-20 19:49:00,82.7,65.9,30.04,WSW,252,0.0,0.0,57,0.00,,,0.00,0.00,VWS V14.01,2013-08-20 23:49:00,
2013-08-20 19:50:00,82.7,65.9,30.04,WSW,252,0.0,1.0,57,0.00,,,0.00,0.00,VWS V14.01,2013-08-20 23:50:00,
2013-08-20 19:53:00,82.6,65.8,30.04,WSW,252,0.0,0.0,57,0.00,,,0.00,0.00,VWS V14.01,2013-08-20 23:53:00,
2013-08-20 19:54:00,82.6,66.3,30.04,WSW,252,0.0,1.0,58,0.00,,,0.00,0.00,VWS V14.01,2013-08-20 23:54:00,
2013-08-20 19:55:00,82.5,65.8,30.04,WSW,252,0.0,0.0,57,0.00,,,0.00,0.00,VWS V14.01,2013-08-20 23:55:00,
2013-08-20 19:58:00,82.4,65.7,30.05,WSW,252,0.0,1.0,57,0.00,,,0.00,0.00,VWS V14.01,2013-08-20 23:58:00,
2013-08-20 19:59:00,82.3,66.1,30.05,WSW,252,0.0,1.0,58,0.00,,,0.00,0.00,VWS V14.01,2013-08-20 23:59:00,
2013-08-20 20:00:00,82.2,66.0,30.05,WSW,252,0.0,3.0,58,0.00,,,0.00,0.00,VWS V14.01,2013-08-21 00:00:00,
2013-08-20 20:03:00,82.0,65.8,30.05,WSW,252,0.0,2.0,58,0.00,,,0.00,0.00,VWS V14.01,2013-08-21 00:03:00,
2013-08-20 20:04:00,82.0,65.8,30.05,WSW,252,1.0,2.0,58,0.00,,,0.00,0.00,VWS V14.01,2013-08-21 00:04:00,
2013-08-20 20:05:00,81.8,65.6,30.05,WSW,252,1.0,2.0,58,0.00,,,0.00,0.00,VWS V14.01,2013-08-21 00:05:00,
2013-08-20 20:08:00,81.6,65.4,30.04,WSW,252,0.0,0.0,58,0.00,,,0.00,0.00,VWS V14.01,2013-08-21 00:08:00,
2013-08-20 20:09:00,81.6,65.9,30.04,WSW,252,2.0,2.0,59,0.00,,,0.00,0.00,VWS V14.01,2013-08-21 00:09:00,
2013-08-20 20:10:00,81.5,65.3,30.04,WSW,252,0.0,0.0,58,0.00,,,0.00,0.00,VWS V14.01,2013-08-21 00:10:00,
2013-08-20 20:13:00,81.4,65.7,30.04,WSW,252,0.0,0.0,59,0.00,,,0.00,0.00,VWS V14.01,2013-08-21 00:13:00,
2013-08-20 20:14:00,81.4,65.7,30.04,WSW,252,0.0,0.0,59,0.00,,,0.00,0.00,VWS V14.01,2013-08-21 00:14:00,
2013-08-20 20:15:00,81.3,65.6,30.05,WSW,252,0.0,0.0,59,0.00,,,0.00,0.00,VWS V14.01,2013-08-21 00:15:00,
2013-08-20 20:16:00,81.3,65.6,30.04,WSW,252,0.0,0.0,59,0.00,,,0.00,0.00,VWS V14.01,2013-08-21 00:16:00,
2013-08-20 20:18:00,81.2,66.0,30.04,WSW,252,0.0,0.0,60,0.00,,,0.00,0.00,VWS V14.01,2013-08-21 00:18:00,
2013-08-20 20:19:00,81.1,65.9,30.05,WSW,252,0.0,1.0,60,0.00,,,0.00,0.00,VWS V14.01,2013-08-21 00:19:00,
2013-08-20 20:20:00,81.1,65.9,30.04,WSW,252,0.0,0.0,60,0.00,,,0.00,0.00,VWS V14.01,2013-08-21 00:20:00,
2013-08-20 20:21:00,81.1,65.9,30.04,WSW,252,0.0,0.0,60,0.00,,,0.00,0.00,VWS V14.01,2013-08-21 00:21:00,
2013-08-20 20:23:00,80.9,65.7,30.04,WSW,252,0.0,0.0,60,0.00,,,0.00,0.00,VWS V14.01,2013-08-21 00:23:00,
2013-08-20 20:24:00,80.9,65.7,30.04,WSW,252,0.0,0.0,60,0.00,,,0.00,0.00,VWS V14.01,2013-08-21 00:24:00,
2013-08-20 20:25:00,80.9,65.7,30.04,WSW,252,0.0,0.0,60,0.00,,,0.00,0.00,VWS V14.01,2013-08-21 00:25:00,
2013-08-20 20:26:00,80.8,65.6,30.04,WSW,252,0.0,0.0,60,0.00,,,0.00,0.00,VWS V14.01,2013-08-21 00:26:00,
2013-08-20 20:28:00,80.7,66.0,30.04,WSW,252,0.0,0.0,61,0.00,,,0.00,0.00,VWS V14.01,2013-08-21 00:28:00,
2013-08-20 20:29:00,80.6,65.9,30.04,WSW,252,0.0,0.0,61,0.00,,,0.00,0.00,VWS V14.01,2013-08-21 00:29:00,
2013-08-20 20:30:00,80.6,65.9,30.04,WSW,252,0.0,0.0,61,0.00,,,0.00,0.00,VWS V14.01,2013-08-21 00:30:00,
2013-08-20 20:31:00,80.5,66.3,30.05,WSW,252,0.0,0.0,62,0.00,,,0.00,0.00,VWS V14.01,2013-08-21 00:31:00,
2013-08-20 20:33:00,80.4,66.2,30.04,WSW,252,0.0,0.0,62,0.00,,,0.00,0.00,VWS V14.01,2013-08-21 00:33:00,
2013-08-20 20:34:00,80.4,66.2,30.04,WSW,252,0.0,0.0,62,0.00,,,0.00,0.00,VWS V14.01,2013-08-21 00:34:00,
2013-08-20 20:35:00,80.3,66.1,30.05,WSW,252,0.0,0.0,62,0.00,,,0.00,0.00,VWS V14.01,2013-08-21 00:35:00,
2013-08-20 20:36:00,80.3,66.1,30.04,WSW,252,0.0,0.0,62,0.00,,,0.00,0.00,VWS V14.01,2013-08-21 00:36:00,
2013-08-20 20:38:00,80.2,66.0,30.05,WSW,252,0.0,0.0,62,0.00,,,0.00,0.00,VWS V14.01,2013-08-21 00:38:00,
2013-08-20 20:39:00,80.1,66.4,30.04,WSW,252,0.0,0.0,63,0.00,,,0.00,0.00,VWS V14.01,2013-08-21 00:39:00,
2013-08-20 20:40:00,80.1,66.4,30.04,WSW,252,0.0,0.0,63,0.00,,,0.00,0.00,VWS V14.01,2013-08-21 00:40:00,
2013-08-20 20:41:00,80.0,66.3,30.05,WSW,252,0.0,0.0,63,0.00,,,0.00,0.00,VWS V14.01,2013-08-21 00:41:00,
2013-08-20 20:43:00,79.8,66.1,30.05,WSW,252,0.0,0.0,63,0.00,,,0.00,0.00,VWS V14.01,2013-08-21 00:43:00,
2013-08-20 20:45:00,79.7,66.0,30.04,WSW,252,0.0,0.0,63,0.00,,,0.00,0.00,VWS V14.01,2013-08-21 00:45:00,
2013-08-20 20:46:00,79.6,65.9,30.04,WSW,252,0.0,0.0,63,0.00,,,0.00,0.00,VWS V14.01,2013-08-21 00:46:00,
2013-08-20 20:48:00,79.5,66.3,30.04,WSW,252,0.0,0.0,64,0.00,,,0.00,0.00,VWS V14.01,2013-08-21 00:48:00,
2013-08-20 20:50:00,79.4,66.2,30.04,WSW,252,0.0,0.0,64,0.00,,,0.00,0.00,VWS V14.01,2013-08-21 00:50:00,
2013-08-20 20:51:00,79.3,66.1,30.04,WSW,252,0.0,0.0,64,0.00,,,0.00,0.00,VWS V14.01,2013-08-21 00:51:00,
2013-08-20 20:53:00,79.2,66.4,30.04,WSW,252,0.0,0.0,65,0.00,,,0.00,0.00,VWS V14.01,2013-08-21 00:53:00,
2013-08-20 20:54:00,79.1,66.3,30.05,WSW,252,0.0,0.0,65,0.00,,,0.00,0.00,VWS V14.01,2013-08-21 00:54:00,
2013-08-20 20:55:00,79.1,66.3,30.05,WSW,252,0.0,0.0,65,0.00,,,0.00,0.00,VWS V14.01,2013-08-21 00:55:00,
2013-08-20 20:56:00,79.0,66.2,30.05,WSW,252,0.0,0.0,65,0.00,,,0.00,0.00,VWS V14.01,2013-08-21 00:56:00,
2013-08-20 20:58:00,78.9,66.2,30.05,WSW,252,0.0,0.0,65,0.00,,,0.00,0.00,VWS V14.01,2013-08-21 00:58:00,
2013-08-20 20:59:00,78.8,66.1,30.05,WSW,252,0.0,0.0,65,0.00,,,0.00,0.00,VWS V14.01,2013-08-21 00:59:00,
2013-08-20 21:00:00,78.8,66.1,30.05,WSW,252,0.0,0.0,65,0.00,,,0.00,0.00,VWS V14.01,2013-08-21 01:00:00,
2013-08-20 21:01:00,78.7,66.4,30.05,WSW,252,0.0,0.0,66,0.00,,,0.00,0.00,VWS V14.01,2013-08-21 01:01:00,
2013-08-20 21:03:00,78.6,66.3,30.05,WSW,252,0.0,0.0,66,0.00,,,0.00,0.00,VWS V14.01,2013-08-21 01:03:00,
2013-08-20 21:04:00,78.5,66.6,30.05,WSW,252,0.0,0.0,67,0.00,,,0.00,0.00,VWS V14.01,2013-08-21 01:04:00,
2013-08-20 21:05:00,78.5,66.6,30.05,WSW,252,0.0,0.0,67,0.00,,,0.00,0.00,VWS V14.01,2013-08-21 01:05:00,
2013-08-20 21:06:00,78.4,66.6,30.04,WSW,252,0.0,0.0,67,0.00,,,0.00,0.00,VWS V14.01,2013-08-21 01:06:00,
2013-08-20 21:08:00,78.2,66.4,30.04,WSW,252,0.0,0.0,67,0.00,,,0.00,0.00,VWS V14.01,2013-08-21 01:08:00,
2013-08-20 21:09:00,78.2,66.8,30.05,WSW,252,0.0,0.0,68,0.00,,,0.00,0.00,VWS V14.01,2013-08-21 01:09:00,
2013-08-20 21:10:00,78.1,67.1,30.05,WSW,252,0.0,0.0,69,0.00,,,0.00,0.00,VWS V14.01,2013-08-21 01:10:00,
2013-08-20 21:11:00,78.0,67.0,30.05,WSW,252,0.0,0.0,69,0.00,,,0.00,0.00,VWS V14.01,2013-08-21 01:11:00,
2013-08-20 21:13:00,77.8,66.8,30.04,WSW,252,0.0,0.0,69,0.00,,,0.00,0.00,VWS V14.01,2013-08-21 01:13:00,
2013-08-20 21:15:00,77.6,66.6,30.04,WSW,252,0.0,0.0,69,0.00,,,0.00,0.00,VWS V14.01,2013-08-21 01:15:00,
2013-08-20 21:16:00,77.5,66.9,30.05,WSW,252,0.0,0.0,70,0.00,,,0.00,0.00,VWS V14.01,2013-08-21 01:16:00,
2013-08-20 21:18:00,77.3,67.2,30.05,WSW,252,0.0,0.0,71,0.00,,,0.00,0.00,VWS V14.01,2013-08-21 01:18:00,
2013-08-20 21:19:00,77.2,67.1,30.05,WSW,252,0.0,0.0,71,0.00,,,0.00,0.00,VWS V14.01,2013-08-21 01:19:00,
2013-08-20 21:20:00,77.1,67.0,30.05,WSW,252,0.0,0.0,71,0.00,,,0.00,0.00,VWS V14.01,2013-08-21 01:20:00,
2013-08-20 21:21:00,77.0,66.9,30.05,WSW,252,0.0,0.0,71,0.00,,,0.00,0.00,VWS V14.01,2013-08-21 01:21:00,
2013-08-20 21:23:00,76.8,67.1,30.05,WSW,252,0.0,0.0,72,0.00,,,0.00,0.00,VWS V14.01,2013-08-21 01:23:00,
2013-08-20 21:24:00,76.7,67.0,30.05,WSW,252,0.0,0.0,72,0.00,,,0.00,0.00,VWS V14.01,2013-08-21 01:24:00,
2013-08-20 21:25:00,76.7,66.6,30.05,WSW,252,0.0,0.0,71,0.00,,,0.00,0.00,VWS V14.01,2013-08-21 01:25:00,
2013-08-20 21:27:00,76.6,66.5,30.05,WSW,252,0.0,0.0,71,0.00,,,0.00,0.00,VWS V14.01,2013-08-21 01:27:00,
2013-08-20 21:28:00,76.5,66.4,30.05,WSW,252,0.0,0.0,71,0.00,,,0.00,0.00,VWS V14.01,2013-08-21 01:28:00,
2013-08-20 21:29:00,76.4,66.3,30.05,WSW,252,0.0,0.0,71,0.00,,,0.00,0.00,VWS V14.01,2013-08-21 01:29:00,
2013-08-20 21:30:00,76.4,66.7,30.05,WSW,252,0.0,0.0,72,0.00,,,0.00,0.00,VWS V14.01,2013-08-21 01:30:00,
2013-08-20 21:32:00,76.3,66.6,30.05,WSW,252,0.0,0.0,72,0.00,,,0.00,0.00,VWS V14.01,2013-08-21 01:32:00,
2013-08-20 21:33:00,76.2,66.1,30.05,WSW,252,0.0,0.0,71,0.00,,,0.00,0.00,VWS V14.01,2013-08-21 01:33:00,
2013-08-20 21:34:00,76.2,66.5,30.05,WSW,252,0.0,0.0,72,0.00,,,0.00,0.00,VWS V14.01,2013-08-21 01:34:00,
2013-08-20 21:35:00,76.1,66.4,30.05,WSW,252,0.0,0.0,72,0.00,,,0.00,0.00,VWS V14.01,2013-08-21 01:35:00,
2013-08-20 21:37:00,76.1,66.4,30.06,WSW,252,0.0,0.0,72,0.00,,,0.00,0.00,VWS V14.01,2013-08-21 01:37:00,
2013-08-20 21:38:00,76.0,66.3,30.05,WSW,252,0.0,0.0,72,0.00,,,0.00,0.00,VWS V14.01,2013-08-21 01:38:00,
2013-08-20 21:39:00,76.0,66.3,30.05,WSW,252,0.0,0.0,72,0.00,,,0.00,0.00,VWS V14.01,2013-08-21 01:39:00,
2013-08-20 21:40:00,75.9,66.2,30.06,WSW,252,0.0,0.0,72,0.00,,,0.00,0.00,VWS V14.01,2013-08-21 01:40:00,
2013-08-20 21:42:00,75.9,66.2,30.06,WSW,252,0.0,0.0,72,0.00,,,0.00,0.00,VWS V14.01,2013-08-21 01:42:00,
2013-08-20 21:43:00,75.8,66.1,30.06,WSW,252,0.0,0.0,72,0.00,,,0.00,0.00,VWS V14.01,2013-08-21 01:43:00,
2013-08-20 21:44:00,75.8,66.1,30.06,WSW,252,0.0,0.0,72,0.00,,,0.00,0.00,VWS V14.01,2013-08-21 01:44:00,
2013-08-20 21:45:00,75.8,66.1,30.05,WSW,252,0.0,0.0,72,0.00,,,0.00,0.00,VWS V14.01,2013-08-21 01:45:00,
2013-08-20 21:47:00,75.7,66.0,30.06,WSW,252,0.0,0.0,72,0.00,,,0.00,0.00,VWS V14.01,2013-08-21 01:47:00,
2013-08-20 21:48:00,75.7,66.0,30.06,WSW,252,0.0,0.0,72,0.00,,,0.00,0.00,VWS V14.01,2013-08-21 01:48:00,
2013-08-20 21:50:00,75.7,66.0,30.06,WSW,252,0.0,0.0,72,0.00,,,0.00,0.00,VWS V14.01,2013-08-21 01:50:00,
2013-08-20 21:51:00,75.6,65.9,30.06,WSW,252,0.0,0.0,72,0.00,,,0.00,0.00,VWS V14.01,2013-08-21 01:51:00,
2013-08-20 21:52:00,75.6,65.9,30.06,WSW,252,0.0,0.0,72,0.00,,,0.00,0.00,VWS V14.01,2013-08-21 01:52:00,
2013-08-20 21:54:00,75.6,66.3,30.06,WSW,252,0.0,0.0,73,0.00,,,0.00,0.00,VWS V14.01,2013-08-21 01:54:00,
2013-08-20 21:55:00,75.5,66.2,30.06,WSW,252,0.0,0.0,73,0.00,,,0.00,0.00,VWS V14.01,2013-08-21 01:55:00,
2013-08-20 21:56:00,75.5,66.2,30.06,WSW,252,0.0,0.0,73,0.00,,,0.00,0.00,VWS V14.01,2013-08-21 01:56:00,
2013-08-20 21:57:00,75.5,66.2,30.06,WSW,252,0.0,0.0,73,0.00,,,0.00,0.00,VWS V14.01,2013-08-21 01:57:00,
2013-08-20 21:59:00,75.5,66.2,30.06,WSW,252,0.0,0.0,73,0.00,,,0.00,0.00,VWS V14.01,2013-08-21 01:59:00,
2013-08-20 22:00:00,75.5,66.2,30.06,WSW,252,0.0,0.0,73,0.00,,,0.00,0.00,VWS V14.01,2013-08-21 02:00:00,
2013-08-20 22:01:00,75.4,66.2,30.06,WSW,252,0.0,0.0,73,0.00,,,0.00,0.00,VWS V14.01,2013-08-21 02:01:00,
2013-08-20 22:02:00,75.4,66.2,30.06,WSW,252,0.0,0.0,73,0.00,,,0.00,0.00,VWS V14.01,2013-08-21 02:02:00,
2013-08-20 22:04:00,75.4,66.2,30.06,WSW,252,0.0,0.0,73,0.00,,,0.00,0.00,VWS V14.01,2013-08-21 02:04:00,
2013-08-20 22:05:00,75.4,66.2,30.06,WSW,252,0.0,0.0,73,0.00,,,0.00,0.00,VWS V14.01,2013-08-21 02:05:00,
2013-08-20 22:06:00,75.4,66.2,30.06,WSW,252,0.0,0.0,73,0.00,,,0.00,0.00,VWS V14.01,2013-08-21 02:06:00,
2013-08-20 22:07:00,75.4,66.2,30.06,WSW,252,0.0,0.0,73,0.00,,,0.00,0.00,VWS V14.01,2013-08-21 02:07:00,
2013-08-20 22:09:00,75.4,66.2,30.06,WSW,252,0.0,0.0,73,0.00,,,0.00,0.00,VWS V14.01,2013-08-21 02:09:00,
2013-08-20 22:10:00,75.4,66.2,30.06,WSW,252,0.0,0.0,73,0.00,,,0.00,0.00,VWS V14.01,2013-08-21 02:10:00,
2013-08-20 22:11:00,75.4,66.2,30.07,WSW,252,0.0,0.0,73,0.00,,,0.00,0.00,VWS V14.01,2013-08-21 02:11:00,
2013-08-20 22:12:00,75.3,66.1,30.07,WSW,252,0.0,0.0,73,0.00,,,0.00,0.00,VWS V14.01,2013-08-21 02:12:00,
2013-08-20 22:14:00,75.3,66.1,30.07,WSW,252,0.0,0.0,73,0.00,,,0.00,0.00,VWS V14.01,2013-08-21 02:14:00,
2013-08-20 22:15:00,75.3,66.1,30.07,WSW,252,0.0,0.0,73,0.00,,,0.00,0.00,VWS V14.01,2013-08-21 02:15:00,
2013-08-20 22:16:00,75.3,66.1,30.07,WSW,252,0.0,0.0,73,0.00,,,0.00,0.00,VWS V14.01,2013-08-21 02:16:00,
2013-08-20 22:17:00,75.3,66.1,30.07,WSW,252,0.0,0.0,73,0.00,,,0.00,0.00,VWS V14.01,2013-08-21 02:17:00,
2013-08-20 22:19:00,75.2,66.0,30.07,WSW,252,0.0,0.0,73,0.00,,,0.00,0.00,VWS V14.01,2013-08-21 02:19:00,
2013-08-20 22:20:00,75.2,66.0,30.07,WSW,252,0.0,0.0,73,0.00,,,0.00,0.00,VWS V14.01,2013-08-21 02:20:00,
2013-08-20 22:21:00,75.2,66.0,30.07,WSW,252,0.0,0.0,73,0.00,,,0.00,0.00,VWS V14.01,2013-08-21 02:21:00,
2013-08-20 22:22:00,75.2,66.0,30.07,WSW,252,0.0,0.0,73,0.00,,,0.00,0.00,VWS V14.01,2013-08-21 02:22:00,
2013-08-20 22:24:00,75.2,66.0,30.07,WSW,252,0.0,0.0,73,0.00,,,0.00,0.00,VWS V14.01,2013-08-21 02:24:00,
2013-08-20 22:25:00,75.2,66.0,30.07,WSW,252,0.0,0.0,73,0.00,,,0.00,0.00,VWS V14.01,2013-08-21 02:25:00,
2013-08-20 22:26:00,75.1,65.9,30.07,WSW,252,0.0,0.0,73,0.00,,,0.00,0.00,VWS V14.01,2013-08-21 02:26:00,
2013-08-20 22:27:00,75.1,65.9,30.07,WSW,252,0.0,0.0,73,0.00,,,0.00,0.00,VWS V14.01,2013-08-21 02:27:00,
2013-08-20 22:29:00,75.1,65.9,30.07,WSW,252,0.0,0.0,73,0.00,,,0.00,0.00,VWS V14.01,2013-08-21 02:29:00,
2013-08-20 22:30:00,75.1,65.9,30.07,WSW,252,0.0,0.0,73,0.00,,,0.00,0.00,VWS V14.01,2013-08-21 02:30:00,
2013-08-20 22:31:00,75.0,65.8,30.07,WSW,252,0.0,0.0,73,0.00,,,0.00,0.00,VWS V14.01,2013-08-21 02:31:00,
2013-08-20 22:32:00,75.0,65.8,30.07,WSW,252,0.0,0.0,73,0.00,,,0.00,0.00,VWS V14.01,2013-08-21 02:32:00,
2013-08-20 22:34:00,74.9,65.7,30.07,WSW,252,0.0,0.0,73,0.00,,,0.00,0.00,VWS V14.01,2013-08-21 02:34:00,
2013-08-20 22:35:00,74.9,65.7,30.07,WSW,252,0.0,0.0,73,0.00,,,0.00,0.00,VWS V14.01,2013-08-21 02:35:00,
2013-08-20 22:36:00,74.9,65.7,30.07,WSW,252,0.0,0.0,73,0.00,,,0.00,0.00,VWS V14.01,2013-08-21 02:36:00,
2013-08-20 22:37:00,74.9,65.7,30.07,WSW,252,0.0,1.0,73,0.00,,,0.00,0.00,VWS V14.01,2013-08-21 02:37:00,
2013-08-20 22:40:00,74.8,65.6,30.07,WSW,252,0.0,1.0,73,0.00,,,0.00,0.00,VWS V14.01,2013-08-21 02:40:00,
2013-08-20 22:41:00,74.8,65.6,30.07,WSW,252,0.0,0.0,73,0.00,,,0.00,0.00,VWS V14.01,2013-08-21 02:41:00,
2013-08-20 22:42:00,74.8,65.6,30.07,WSW,252,0.0,1.0,73,0.00,,,0.00,0.00,VWS V14.01,2013-08-21 02:42:00,
2013-08-20 22:45:00,74.8,65.6,30.07,WSW,252,0.0,0.0,73,0.00,,,0.00,0.00,VWS V14.01,2013-08-21 02:45:00,
2013-08-20 22:46:00,74.7,65.5,30.07,WSW,252,0.0,0.0,73,0.00,,,0.00,0.00,VWS V14.01,2013-08-21 02:46:00,
2013-08-20 22:47:00,74.7,65.5,30.07,WSW,252,0.0,1.0,73,0.00,,,0.00,0.00,VWS V14.01,2013-08-21 02:47:00,
2013-08-20 22:50:00,74.6,65.4,30.07,WSW,252,0.0,0.0,73,0.00,,,0.00,0.00,VWS V14.01,2013-08-21 02:50:00,
2013-08-20 22:51:00,74.6,65.4,30.07,WSW,252,0.0,0.0,73,0.00,,,0.00,0.00,VWS V14.01,2013-08-21 02:51:00,
2013-08-20 22:52:00,74.6,65.8,30.07,WSW,252,0.0,0.0,74,0.00,,,0.00,0.00,VWS V14.01,2013-08-21 02:52:00,
2013-08-20 22:55:00,74.5,65.7,30.07,WSW,252,1.0,1.0,74,0.00,,,0.00,0.00,VWS V14.01,2013-08-21 02:55:00,
2013-08-20 22:56:00,74.5,65.7,30.07,WSW,252,0.0,0.0,74,0.00,,,0.00,0.00,VWS V14.01,2013-08-21 02:56:00,
2013-08-20 22:58:00,74.5,65.7,30.07,WSW,252,0.0,0.0,74,0.00,,,0.00,0.00,VWS V14.01,2013-08-21 02:58:00,
2013-08-20 23:00:00,74.4,65.6,30.07,WSW,252,0.0,0.0,74,0.00,,,0.00,0.00,VWS V14.01,2013-08-21 03:00:00,
2013-08-20 23:01:00,74.4,65.6,30.07,WSW,252,1.0,1.0,74,0.00,,,0.00,0.00,VWS V14.01,2013-08-21 03:01:00,
2013-08-20 23:02:00,74.4,65.6,30.06,WSW,252,0.0,0.0,74,0.00,,,0.00,0.00,VWS V14.01,2013-08-21 03:02:00,
2013-08-20 23:03:00,74.3,65.5,30.07,WSW,252,0.0,0.0,74,0.00,,,0.00,0.00,VWS V14.01,2013-08-21 03:03:00,
2013-08-20 23:05:00,74.3,65.5,30.06,WSW,252,0.0,0.0,74,0.00,,,0.00,0.00,VWS V14.01,2013-08-21 03:05:00,
2013-08-20 23:06:00,74.3,65.5,30.07,WSW,252,2.0,4.0,74,0.00,,,0.00,0.00,VWS V14.01,2013-08-21 03:06:00,
2013-08-20 23:07:00,74.3,65.5,30.07,WSW,252,0.0,0.0,74,0.00,,,0.00,0.00,VWS V14.01,2013-08-21 03:07:00,
2013-08-20 23:08:00,74.3,65.5,30.07,WSW,252,0.0,0.0,74,0.00,,,0.00,0.00,VWS V14.01,2013-08-21 03:08:00,
2013-08-20 23:10:00,74.3,65.5,30.07,WSW,252,1.0,2.0,74,0.00,,,0.00,0.00,VWS V14.01,2013-08-21 03:10:00,
2013-08-20 23:11:00,74.3,65.5,30.07,WSW,252,0.0,1.0,74,0.00,,,0.00,0.00,VWS V14.01,2013-08-21 03:11:00,
2013-08-20 23:12:00,74.3,65.5,30.07,WSW,252,3.0,3.0,74,0.00,,,0.00,0.00,VWS V14.01,2013-08-21 03:12:00,
2013-08-20 23:13:00,74.3,65.5,30.07,WSW,252,0.0,3.0,74,0.00,,,0.00,0.00,VWS V14.01,2013-08-21 03:13:00,
2013-08-20 23:15:00,74.3,65.5,30.07,WSW,252,0.0,2.0,74,0.00,,,0.00,0.00,VWS V14.01,2013-08-21 03:15:00,
2013-08-20 23:16:00,74.3,65.5,30.07,WSW,252,0.0,0.0,74,0.00,,,0.00,0.00,VWS V14.01,2013-08-21 03:16:00,
2013-08-20 23:17:00,74.3,65.5,30.07,WSW,252,1.0,1.0,74,0.00,,,0.00,0.00,VWS V14.01,2013-08-21 03:17:00,
2013-08-20 23:18:00,74.3,65.5,30.07,WSW,252,0.0,1.0,74,0.00,,,0.00,0.00,VWS V14.01,2013-08-21 03:18:00,
2013-08-20 23:20:00,74.3,65.5,30.07,WSW,252,0.0,0.0,74,0.00,,,0.00,0.00,VWS V14.01,2013-08-21 03:20:00,
2013-08-20 23:21:00,74.3,65.5,30.07,WSW,252,1.0,2.0,74,0.00,,,0.00,0.00,VWS V14.01,2013-08-21 03:21:00,
2013-08-20 23:22:00,74.3,65.5,30.07,WSW,252,0.0,0.0,74,0.00,,,0.00,0.00,VWS V14.01,2013-08-21 03:22:00,
2013-08-20 23:23:00,74.3,65.5,30.07,WSW,252,0.0,1.0,74,0.00,,,0.00,0.00,VWS V14.01,2013-08-21 03:23:00,
2013-08-20 23:25:00,74.3,65.5,30.07,WSW,252,4.0,4.0,74,0.00,,,0.00,0.00,VWS V14.01,2013-08-21 03:25:00,
2013-08-20 23:26:00,74.3,65.5,30.07,WSW,252,1.0,1.0,74,0.00,,,0.00,0.00,VWS V14.01,2013-08-21 03:26:00,
2013-08-20 23:27:00,74.3,65.5,30.07,WSW,252,0.0,0.0,74,0.00,,,0.00,0.00,VWS V14.01,2013-08-21 03:27:00,
2013-08-20 23:29:00,74.3,65.5,30.07,WSW,252,1.0,1.0,74,0.00,,,0.00,0.00,VWS V14.01,2013-08-21 03:29:00,
2013-08-20 23:30:00,74.3,65.5,30.07,WSW,252,0.0,1.0,74,0.00,,,0.00,0.00,VWS V14.01,2013-08-21 03:30:00,
2013-08-20 23:31:00,74.3,65.5,30.07,WSW,252,0.0,1.0,74,0.00,,,0.00,0.00,VWS V14.01,2013-08-21 03:31:00,
2013-08-20 23:32:00,74.2,65.4,30.07,WSW,252,0.0,1.0,74,0.00,,,0.00,0.00,VWS V14.01,2013-08-21 03:32:00,
2013-08-20 23:34:00,74.2,65.4,30.07,WSW,252,0.0,2.0,74,0.00,,,0.00,0.00,VWS V14.01,2013-08-21 03:34:00,
2013-08-20 23:35:00,74.2,65.4,30.07,WSW,252,0.0,4.0,74,0.00,,,0.00,0.00,VWS V14.01,2013-08-21 03:35:00,
2013-08-20 23:36:00,74.2,65.4,30.07,WSW,252,1.0,1.0,74,0.00,,,0.00,0.00,VWS V14.01,2013-08-21 03:36:00,
2013-08-20 23:37:00,74.2,65.4,30.07,WSW,252,0.0,1.0,74,0.00,,,0.00,0.00,VWS V14.01,2013-08-21 03:37:00,
2013-08-20 23:39:00,74.2,65.4,30.07,WSW,252,0.0,1.0,74,0.00,,,0.00,0.00,VWS V14.01,2013-08-21 03:39:00,
2013-08-20 23:40:00,74.2,65.4,30.07,WSW,252,0.0,1.0,74,0.00,,,0.00,0.00,VWS V14.01,2013-08-21 03:40:00,
2013-08-20 23:41:00,74.2,65.4,30.07,WSW,252,0.0,0.0,74,0.00,,,0.00,0.00,VWS V14.01,2013-08-21 03:41:00,
2013-08-20 23:42:00,74.2,65.4,30.07,WSW,252,0.0,4.0,74,0.00,,,0.00,0.00,VWS V14.01,2013-08-21 03:42:00,
2013-08-20 23:44:00,74.1,65.3,30.07,WSW,252,0.0,1.0,74,0.00,,,0.00,0.00,VWS V14.01,2013-08-21 03:44:00,
2013-08-20 23:45:00,74.1,65.3,30.07,WSW,252,0.0,1.0,74,0.00,,,0.00,0.00,VWS V14.01,2013-08-21 03:45:00,
2013-08-20 23:46:00,74.1,65.3,30.07,WSW,252,0.0,1.0,74,0.00,,,0.00,0.00,VWS V14.01,2013-08-21 03:46:00,
2013-08-20 23:47:00,74.1,65.3,30.07,WSW,252,1.0,1.0,74,0.00,,,0.00,0.00,VWS V14.01,2013-08-21 03:47:00,
2013-08-20 23:49:00,74.1,65.3,30.07,WSW,252,1.0,3.0,74,0.00,,,0.00,0.00,VWS V14.01,2013-08-21 03:49:00,
2013-08-20 23:50:00,74.1,65.3,30.07,WSW,252,0.0,1.0,74,0.00,,,0.00,0.00,VWS V14.01,2013-08-21 03:50:00,
2013-08-20 23:51:00,74.0,65.2,30.07,WSW,252,1.0,2.0,74,0.00,,,0.00,0.00,VWS V14.01,2013-08-21 03:51:00,
2013-08-20 23:52:00,74.0,65.2,30.07,WSW,252,0.0,1.0,74,0.00,,,0.00,0.00,VWS V14.01,2013-08-21 03:52:00,
2013-08-20 23:54:00,74.0,65.2,30.07,WSW,252,0.0,4.0,74,0.00,,,0.00,0.00,VWS V14.01,2013-08-21 03:54:00,
2013-08-20 23:55:00,73.9,65.1,30.07,WSW,252,0.0,1.0,74,0.00,,,0.00,0.00,VWS V14.01,2013-08-21 03:55:00,
2013-08-20 23:56:00,73.9,65.5,30.07,WSW,252,0.0,1.0,75,0.00,,,0.00,0.00,VWS V14.01,2013-08-21 03:56:00,
2013-08-20 23:57:00,73.9,65.5,30.07,WSW,252,1.0,1.0,75,0.00,,,0.00,0.00,VWS V14.01,2013-08-21 03:57:00,
2013-08-20 23:59:00,73.9,65.5,30.07,WSW,252,0.0,0.0,75,0.00,,,0.00,0.00,VWS V14.01,2013-08-21 03:59:00,